<?xml version="1.0" encoding="UTF-8" standalone="no" ?>
<gpx xmlns="http://www.topografix.com/GPX/1/1" xmlns:xsi="http://www.w3.org/2001/XMLSchema-instance" xsi:schemaLocation="http://www.topografix.com/GPX/1/1 http://www.topografix.com/GPX/1/1/gpx.xsd" version="1.1" creator="VisuGPX - https://www.visugpx.com">
  <metadata>
    <name>Trace Rando VTT Couëron 17km</name>
    <desc><![CDATA[Trace de la rando 17km du 1/09/2013]]></desc>
  </metadata>
  <trk>
    <name><![CDATA[Rando VTT Coueron circuit 17km]]></name>
    <trkseg>
      <trkpt lat="47.22171" lon="-1.7275">
        <ele>30.3</ele>
        <time>2013-09-01T07:09:22Z</time>
      </trkpt>
      <trkpt lat="47.222" lon="-1.72755">
        <ele>32.1</ele>
        <time>2013-09-01T07:09:26Z</time>
      </trkpt>
      <trkpt lat="47.22227" lon="-1.72766">
        <ele>27.8</ele>
        <time>2013-09-01T07:09:30Z</time>
      </trkpt>
      <trkpt lat="47.22252" lon="-1.72769">
        <ele>27.5</ele>
        <time>2013-09-01T07:09:34Z</time>
      </trkpt>
      <trkpt lat="47.22274" lon="-1.72771">
        <ele>26.3</ele>
        <time>2013-09-01T07:09:38Z</time>
      </trkpt>
      <trkpt lat="47.22296" lon="-1.7277">
        <ele>23</ele>
        <time>2013-09-01T07:09:42Z</time>
      </trkpt>
      <trkpt lat="47.22311" lon="-1.7276">
        <ele>21.8</ele>
        <time>2013-09-01T07:09:46Z</time>
      </trkpt>
      <trkpt lat="47.22325" lon="-1.72745">
        <ele>21.9</ele>
        <time>2013-09-01T07:09:50Z</time>
      </trkpt>
      <trkpt lat="47.22344" lon="-1.72741">
        <ele>22</ele>
        <time>2013-09-01T07:09:54Z</time>
      </trkpt>
      <trkpt lat="47.22371" lon="-1.72745">
        <ele>21.2</ele>
        <time>2013-09-01T07:09:58Z</time>
      </trkpt>
      <trkpt lat="47.22398" lon="-1.7275">
        <ele>21.8</ele>
        <time>2013-09-01T07:10:03Z</time>
      </trkpt>
      <trkpt lat="47.22411" lon="-1.7275">
        <ele>19.7</ele>
        <time>2013-09-01T07:10:07Z</time>
      </trkpt>
      <trkpt lat="47.22433" lon="-1.72754">
        <ele>18.7</ele>
        <time>2013-09-01T07:10:11Z</time>
      </trkpt>
      <trkpt lat="47.22453" lon="-1.72756">
        <ele>17.4</ele>
        <time>2013-09-01T07:10:15Z</time>
      </trkpt>
      <trkpt lat="47.22465" lon="-1.72757">
        <ele>16.8</ele>
        <time>2013-09-01T07:10:19Z</time>
      </trkpt>
      <trkpt lat="47.22482" lon="-1.72753">
        <ele>14.7</ele>
        <time>2013-09-01T07:10:23Z</time>
      </trkpt>
      <trkpt lat="47.22511" lon="-1.7276">
        <ele>15</ele>
        <time>2013-09-01T07:10:27Z</time>
      </trkpt>
      <trkpt lat="47.22529" lon="-1.72764">
        <ele>17.7</ele>
        <time>2013-09-01T07:10:31Z</time>
      </trkpt>
      <trkpt lat="47.22548" lon="-1.72761">
        <ele>16.6</ele>
        <time>2013-09-01T07:10:35Z</time>
      </trkpt>
      <trkpt lat="47.22563" lon="-1.72761">
        <ele>15.8</ele>
        <time>2013-09-01T07:10:39Z</time>
      </trkpt>
      <trkpt lat="47.22592" lon="-1.72765">
        <ele>14.6</ele>
        <time>2013-09-01T07:10:43Z</time>
      </trkpt>
      <trkpt lat="47.22613" lon="-1.72767">
        <ele>14.6</ele>
        <time>2013-09-01T07:10:47Z</time>
      </trkpt>
      <trkpt lat="47.22632" lon="-1.72771">
        <ele>15.7</ele>
        <time>2013-09-01T07:10:51Z</time>
      </trkpt>
      <trkpt lat="47.22652" lon="-1.72775">
        <ele>18</ele>
        <time>2013-09-01T07:10:55Z</time>
      </trkpt>
      <trkpt lat="47.22675" lon="-1.72779">
        <ele>19.8</ele>
        <time>2013-09-01T07:10:59Z</time>
      </trkpt>
      <trkpt lat="47.22692" lon="-1.72781">
        <ele>19.9</ele>
        <time>2013-09-01T07:11:03Z</time>
      </trkpt>
      <trkpt lat="47.22714" lon="-1.72781">
        <ele>20.5</ele>
        <time>2013-09-01T07:11:07Z</time>
      </trkpt>
      <trkpt lat="47.2273" lon="-1.7278">
        <ele>20.1</ele>
        <time>2013-09-01T07:11:11Z</time>
      </trkpt>
      <trkpt lat="47.22749" lon="-1.72778">
        <ele>18.6</ele>
        <time>2013-09-01T07:11:15Z</time>
      </trkpt>
      <trkpt lat="47.22769" lon="-1.72782">
        <ele>18.6</ele>
        <time>2013-09-01T07:11:19Z</time>
      </trkpt>
      <trkpt lat="47.2279" lon="-1.72783">
        <ele>18.6</ele>
        <time>2013-09-01T07:11:23Z</time>
      </trkpt>
      <trkpt lat="47.22812" lon="-1.72787">
        <ele>18.6</ele>
        <time>2013-09-01T07:11:27Z</time>
      </trkpt>
      <trkpt lat="47.22831" lon="-1.7279">
        <ele>19.2</ele>
        <time>2013-09-01T07:11:31Z</time>
      </trkpt>
      <trkpt lat="47.22848" lon="-1.72788">
        <ele>19.6</ele>
        <time>2013-09-01T07:11:35Z</time>
      </trkpt>
      <trkpt lat="47.22877" lon="-1.72789">
        <ele>17.3</ele>
        <time>2013-09-01T07:11:39Z</time>
      </trkpt>
      <trkpt lat="47.22895" lon="-1.72784">
        <ele>13.9</ele>
        <time>2013-09-01T07:11:43Z</time>
      </trkpt>
      <trkpt lat="47.22908" lon="-1.72775">
        <ele>14.4</ele>
        <time>2013-09-01T07:11:47Z</time>
      </trkpt>
      <trkpt lat="47.22921" lon="-1.72766">
        <ele>13.4</ele>
        <time>2013-09-01T07:11:51Z</time>
      </trkpt>
      <trkpt lat="47.22939" lon="-1.72761">
        <ele>11.4</ele>
        <time>2013-09-01T07:11:55Z</time>
      </trkpt>
      <trkpt lat="47.22961" lon="-1.72759">
        <ele>13.9</ele>
        <time>2013-09-01T07:11:59Z</time>
      </trkpt>
      <trkpt lat="47.22986" lon="-1.72754">
        <ele>12.4</ele>
        <time>2013-09-01T07:12:03Z</time>
      </trkpt>
      <trkpt lat="47.23007" lon="-1.72749">
        <ele>13.2</ele>
        <time>2013-09-01T07:12:07Z</time>
      </trkpt>
      <trkpt lat="47.23035" lon="-1.7274">
        <ele>12.2</ele>
        <time>2013-09-01T07:12:11Z</time>
      </trkpt>
      <trkpt lat="47.2306" lon="-1.72731">
        <ele>13</ele>
        <time>2013-09-01T07:12:15Z</time>
      </trkpt>
      <trkpt lat="47.23094" lon="-1.72723">
        <ele>11.3</ele>
        <time>2013-09-01T07:12:19Z</time>
      </trkpt>
      <trkpt lat="47.2313" lon="-1.72713">
        <ele>10.2</ele>
        <time>2013-09-01T07:12:23Z</time>
      </trkpt>
      <trkpt lat="47.23167" lon="-1.72694">
        <ele>9.9</ele>
        <time>2013-09-01T07:12:27Z</time>
      </trkpt>
      <trkpt lat="47.23202" lon="-1.72676">
        <ele>9.5</ele>
        <time>2013-09-01T07:12:31Z</time>
      </trkpt>
      <trkpt lat="47.23229" lon="-1.7266">
        <ele>9.8</ele>
        <time>2013-09-01T07:12:35Z</time>
      </trkpt>
      <trkpt lat="47.23254" lon="-1.72648">
        <ele>9.2</ele>
        <time>2013-09-01T07:12:39Z</time>
      </trkpt>
      <trkpt lat="47.23275" lon="-1.72635">
        <ele>8.7</ele>
        <time>2013-09-01T07:12:43Z</time>
      </trkpt>
      <trkpt lat="47.23292" lon="-1.7263">
        <ele>7.1</ele>
        <time>2013-09-01T07:12:47Z</time>
      </trkpt>
      <trkpt lat="47.23303" lon="-1.72625">
        <ele>10.1</ele>
        <time>2013-09-01T07:12:51Z</time>
      </trkpt>
      <trkpt lat="47.233" lon="-1.72604">
        <ele>12.3</ele>
        <time>2013-09-01T07:13:07Z</time>
      </trkpt>
      <trkpt lat="47.23296" lon="-1.72586">
        <ele>13.9</ele>
        <time>2013-09-01T07:13:11Z</time>
      </trkpt>
      <trkpt lat="47.23292" lon="-1.72569">
        <ele>13</ele>
        <time>2013-09-01T07:13:15Z</time>
      </trkpt>
      <trkpt lat="47.23287" lon="-1.72532">
        <ele>12.2</ele>
        <time>2013-09-01T07:13:19Z</time>
      </trkpt>
      <trkpt lat="47.23277" lon="-1.72492">
        <ele>12</ele>
        <time>2013-09-01T07:13:23Z</time>
      </trkpt>
      <trkpt lat="47.23268" lon="-1.72456">
        <ele>10.9</ele>
        <time>2013-09-01T07:13:27Z</time>
      </trkpt>
      <trkpt lat="47.23264" lon="-1.72438">
        <ele>8.6</ele>
        <time>2013-09-01T07:13:31Z</time>
      </trkpt>
      <trkpt lat="47.2326" lon="-1.72414">
        <ele>5.6</ele>
        <time>2013-09-01T07:13:39Z</time>
      </trkpt>
      <trkpt lat="47.23198" lon="-1.72028">
        <ele>6.4</ele>
        <time>2013-09-01T07:14:39Z</time>
      </trkpt>
      <trkpt lat="47.23195" lon="-1.71998">
        <ele>9.5</ele>
        <time>2013-09-01T07:14:43Z</time>
      </trkpt>
      <trkpt lat="47.23194" lon="-1.71971">
        <ele>11.3</ele>
        <time>2013-09-01T07:14:47Z</time>
      </trkpt>
      <trkpt lat="47.23213" lon="-1.7195">
        <ele>12.1</ele>
        <time>2013-09-01T07:14:51Z</time>
      </trkpt>
      <trkpt lat="47.23224" lon="-1.7194">
        <ele>13.3</ele>
        <time>2013-09-01T07:14:55Z</time>
      </trkpt>
      <trkpt lat="47.23242" lon="-1.71931">
        <ele>18.9</ele>
        <time>2013-09-01T07:15:03Z</time>
      </trkpt>
      <trkpt lat="47.2326" lon="-1.71927">
        <ele>22.8</ele>
        <time>2013-09-01T07:15:11Z</time>
      </trkpt>
      <trkpt lat="47.23278" lon="-1.71929">
        <ele>23.5</ele>
        <time>2013-09-01T07:15:15Z</time>
      </trkpt>
      <trkpt lat="47.23295" lon="-1.71926">
        <ele>23.7</ele>
        <time>2013-09-01T07:15:19Z</time>
      </trkpt>
      <trkpt lat="47.23311" lon="-1.7192">
        <ele>21.4</ele>
        <time>2013-09-01T07:15:23Z</time>
      </trkpt>
      <trkpt lat="47.23341" lon="-1.71926">
        <ele>19.9</ele>
        <time>2013-09-01T07:15:27Z</time>
      </trkpt>
      <trkpt lat="47.23364" lon="-1.7193">
        <ele>17.7</ele>
        <time>2013-09-01T07:15:31Z</time>
      </trkpt>
      <trkpt lat="47.23383" lon="-1.7193">
        <ele>16.4</ele>
        <time>2013-09-01T07:15:35Z</time>
      </trkpt>
      <trkpt lat="47.23391" lon="-1.7192">
        <ele>15.3</ele>
        <time>2013-09-01T07:15:43Z</time>
      </trkpt>
      <trkpt lat="47.23396" lon="-1.71905">
        <ele>14.5</ele>
        <time>2013-09-01T07:15:47Z</time>
      </trkpt>
      <trkpt lat="47.23402" lon="-1.71892">
        <ele>13.2</ele>
        <time>2013-09-01T07:15:51Z</time>
      </trkpt>
      <trkpt lat="47.2341" lon="-1.71877">
        <ele>13.6</ele>
        <time>2013-09-01T07:15:55Z</time>
      </trkpt>
      <trkpt lat="47.23414" lon="-1.7186">
        <ele>15.7</ele>
        <time>2013-09-01T07:15:59Z</time>
      </trkpt>
      <trkpt lat="47.23419" lon="-1.71849">
        <ele>16</ele>
        <time>2013-09-01T07:16:03Z</time>
      </trkpt>
      <trkpt lat="47.2343" lon="-1.71841">
        <ele>14</ele>
        <time>2013-09-01T07:16:07Z</time>
      </trkpt>
      <trkpt lat="47.2344" lon="-1.71832">
        <ele>12</ele>
        <time>2013-09-01T07:16:11Z</time>
      </trkpt>
      <trkpt lat="47.23455" lon="-1.7183">
        <ele>10.7</ele>
        <time>2013-09-01T07:16:15Z</time>
      </trkpt>
      <trkpt lat="47.23471" lon="-1.71835">
        <ele>14.9</ele>
        <time>2013-09-01T07:16:19Z</time>
      </trkpt>
      <trkpt lat="47.23487" lon="-1.71848">
        <ele>20.5</ele>
        <time>2013-09-01T07:16:23Z</time>
      </trkpt>
      <trkpt lat="47.23496" lon="-1.71867">
        <ele>19.3</ele>
        <time>2013-09-01T07:16:27Z</time>
      </trkpt>
      <trkpt lat="47.23501" lon="-1.71892">
        <ele>20.6</ele>
        <time>2013-09-01T07:16:31Z</time>
      </trkpt>
      <trkpt lat="47.23508" lon="-1.71914">
        <ele>21.8</ele>
        <time>2013-09-01T07:16:35Z</time>
      </trkpt>
      <trkpt lat="47.23512" lon="-1.71931">
        <ele>20.2</ele>
        <time>2013-09-01T07:16:39Z</time>
      </trkpt>
      <trkpt lat="47.2352" lon="-1.71939">
        <ele>12</ele>
        <time>2013-09-01T07:16:43Z</time>
      </trkpt>
      <trkpt lat="47.23531" lon="-1.71957">
        <ele>18.1</ele>
        <time>2013-09-01T07:16:47Z</time>
      </trkpt>
      <trkpt lat="47.23537" lon="-1.71979">
        <ele>20.7</ele>
        <time>2013-09-01T07:16:51Z</time>
      </trkpt>
      <trkpt lat="47.23543" lon="-1.71997">
        <ele>22</ele>
        <time>2013-09-01T07:16:55Z</time>
      </trkpt>
      <trkpt lat="47.23551" lon="-1.7201">
        <ele>22.4</ele>
        <time>2013-09-01T07:16:59Z</time>
      </trkpt>
      <trkpt lat="47.23555" lon="-1.72023">
        <ele>21.7</ele>
        <time>2013-09-01T07:17:03Z</time>
      </trkpt>
      <trkpt lat="47.23546" lon="-1.72032">
        <ele>17.8</ele>
        <time>2013-09-01T07:17:11Z</time>
      </trkpt>
      <trkpt lat="47.23538" lon="-1.72039">
        <ele>15.4</ele>
        <time>2013-09-01T07:17:43Z</time>
      </trkpt>
      <trkpt lat="47.23531" lon="-1.72042">
        <ele>14.4</ele>
        <time>2013-09-01T07:18:09Z</time>
      </trkpt>
      <trkpt lat="47.23552" lon="-1.72038">
        <ele>21.8</ele>
        <time>2013-09-01T07:25:00Z</time>
      </trkpt>
      <trkpt lat="47.23542" lon="-1.72045">
        <ele>24.4</ele>
        <time>2013-09-01T07:25:23Z</time>
      </trkpt>
      <trkpt lat="47.23529" lon="-1.72052">
        <ele>21.1</ele>
        <time>2013-09-01T07:25:27Z</time>
      </trkpt>
      <trkpt lat="47.23517" lon="-1.72065">
        <ele>20.9</ele>
        <time>2013-09-01T07:25:31Z</time>
      </trkpt>
      <trkpt lat="47.23512" lon="-1.72083">
        <ele>21.1</ele>
        <time>2013-09-01T07:25:35Z</time>
      </trkpt>
      <trkpt lat="47.23501" lon="-1.72098">
        <ele>18.6</ele>
        <time>2013-09-01T07:25:39Z</time>
      </trkpt>
      <trkpt lat="47.23492" lon="-1.72106">
        <ele>11.3</ele>
        <time>2013-09-01T07:25:42Z</time>
      </trkpt>
      <trkpt lat="47.23475" lon="-1.72115">
        <ele>9.8</ele>
        <time>2013-09-01T07:25:46Z</time>
      </trkpt>
      <trkpt lat="47.23448" lon="-1.72118">
        <ele>14.7</ele>
        <time>2013-09-01T07:25:50Z</time>
      </trkpt>
      <trkpt lat="47.23428" lon="-1.72116">
        <ele>12.4</ele>
        <time>2013-09-01T07:25:54Z</time>
      </trkpt>
      <trkpt lat="47.23417" lon="-1.72109">
        <ele>13.2</ele>
        <time>2013-09-01T07:25:58Z</time>
      </trkpt>
      <trkpt lat="47.23407" lon="-1.72096">
        <ele>14.3</ele>
        <time>2013-09-01T07:26:06Z</time>
      </trkpt>
      <trkpt lat="47.23405" lon="-1.72076">
        <ele>13.9</ele>
        <time>2013-09-01T07:26:10Z</time>
      </trkpt>
      <trkpt lat="47.23383" lon="-1.72076">
        <ele>10.2</ele>
        <time>2013-09-01T07:26:18Z</time>
      </trkpt>
      <trkpt lat="47.23369" lon="-1.72087">
        <ele>10.3</ele>
        <time>2013-09-01T07:26:22Z</time>
      </trkpt>
      <trkpt lat="47.2336" lon="-1.72107">
        <ele>11.8</ele>
        <time>2013-09-01T07:26:26Z</time>
      </trkpt>
      <trkpt lat="47.23356" lon="-1.72129">
        <ele>10.3</ele>
        <time>2013-09-01T07:26:30Z</time>
      </trkpt>
      <trkpt lat="47.23347" lon="-1.72151">
        <ele>16.4</ele>
        <time>2013-09-01T07:26:34Z</time>
      </trkpt>
      <trkpt lat="47.23348" lon="-1.72172">
        <ele>10</ele>
        <time>2013-09-01T07:26:38Z</time>
      </trkpt>
      <trkpt lat="47.23349" lon="-1.72191">
        <ele>7.8</ele>
        <time>2013-09-01T07:26:42Z</time>
      </trkpt>
      <trkpt lat="47.2334" lon="-1.72207">
        <ele>6.8</ele>
        <time>2013-09-01T07:26:46Z</time>
      </trkpt>
      <trkpt lat="47.23323" lon="-1.72212">
        <ele>6.9</ele>
        <time>2013-09-01T07:26:50Z</time>
      </trkpt>
      <trkpt lat="47.23307" lon="-1.72215">
        <ele>7.3</ele>
        <time>2013-09-01T07:26:54Z</time>
      </trkpt>
      <trkpt lat="47.23288" lon="-1.72227">
        <ele>9.7</ele>
        <time>2013-09-01T07:26:58Z</time>
      </trkpt>
      <trkpt lat="47.23272" lon="-1.72238">
        <ele>12</ele>
        <time>2013-09-01T07:27:02Z</time>
      </trkpt>
      <trkpt lat="47.23254" lon="-1.72247">
        <ele>11</ele>
        <time>2013-09-01T07:27:06Z</time>
      </trkpt>
      <trkpt lat="47.23239" lon="-1.72254">
        <ele>14.5</ele>
        <time>2013-09-01T07:27:10Z</time>
      </trkpt>
      <trkpt lat="47.23235" lon="-1.72267">
        <ele>15.3</ele>
        <time>2013-09-01T07:27:14Z</time>
      </trkpt>
      <trkpt lat="47.23242" lon="-1.72289">
        <ele>16.5</ele>
        <time>2013-09-01T07:27:18Z</time>
      </trkpt>
      <trkpt lat="47.23247" lon="-1.72312">
        <ele>17.1</ele>
        <time>2013-09-01T07:27:22Z</time>
      </trkpt>
      <trkpt lat="47.2325" lon="-1.72338">
        <ele>15.5</ele>
        <time>2013-09-01T07:27:26Z</time>
      </trkpt>
      <trkpt lat="47.23252" lon="-1.72371">
        <ele>16.7</ele>
        <time>2013-09-01T07:27:30Z</time>
      </trkpt>
      <trkpt lat="47.23259" lon="-1.72392">
        <ele>15.4</ele>
        <time>2013-09-01T07:27:34Z</time>
      </trkpt>
      <trkpt lat="47.2326" lon="-1.72423">
        <ele>17.1</ele>
        <time>2013-09-01T07:27:38Z</time>
      </trkpt>
      <trkpt lat="47.23265" lon="-1.7245">
        <ele>18.1</ele>
        <time>2013-09-01T07:27:42Z</time>
      </trkpt>
      <trkpt lat="47.23271" lon="-1.72474">
        <ele>20.6</ele>
        <time>2013-09-01T07:27:46Z</time>
      </trkpt>
      <trkpt lat="47.23276" lon="-1.72498">
        <ele>23.6</ele>
        <time>2013-09-01T07:27:50Z</time>
      </trkpt>
      <trkpt lat="47.23283" lon="-1.72526">
        <ele>16.7</ele>
        <time>2013-09-01T07:27:54Z</time>
      </trkpt>
      <trkpt lat="47.23289" lon="-1.72546">
        <ele>22.9</ele>
        <time>2013-09-01T07:27:58Z</time>
      </trkpt>
      <trkpt lat="47.23297" lon="-1.72571">
        <ele>16.8</ele>
        <time>2013-09-01T07:28:02Z</time>
      </trkpt>
      <trkpt lat="47.23304" lon="-1.72596">
        <ele>16.2</ele>
        <time>2013-09-01T07:28:06Z</time>
      </trkpt>
      <trkpt lat="47.2331" lon="-1.7262">
        <ele>15.8</ele>
        <time>2013-09-01T07:28:10Z</time>
      </trkpt>
      <trkpt lat="47.23314" lon="-1.72641">
        <ele>14</ele>
        <time>2013-09-01T07:28:18Z</time>
      </trkpt>
      <trkpt lat="47.23319" lon="-1.72659">
        <ele>15.6</ele>
        <time>2013-09-01T07:28:22Z</time>
      </trkpt>
      <trkpt lat="47.23324" lon="-1.72678">
        <ele>15</ele>
        <time>2013-09-01T07:28:26Z</time>
      </trkpt>
      <trkpt lat="47.23329" lon="-1.72698">
        <ele>18.7</ele>
        <time>2013-09-01T07:28:30Z</time>
      </trkpt>
      <trkpt lat="47.23335" lon="-1.72712">
        <ele>23.7</ele>
        <time>2013-09-01T07:28:35Z</time>
      </trkpt>
      <trkpt lat="47.23338" lon="-1.72729">
        <ele>25.5</ele>
        <time>2013-09-01T07:28:39Z</time>
      </trkpt>
      <trkpt lat="47.23343" lon="-1.72753">
        <ele>25.4</ele>
        <time>2013-09-01T07:28:43Z</time>
      </trkpt>
      <trkpt lat="47.23349" lon="-1.72776">
        <ele>24.2</ele>
        <time>2013-09-01T07:28:47Z</time>
      </trkpt>
      <trkpt lat="47.23354" lon="-1.72794">
        <ele>21.3</ele>
        <time>2013-09-01T07:28:51Z</time>
      </trkpt>
      <trkpt lat="47.23357" lon="-1.72811">
        <ele>18.7</ele>
        <time>2013-09-01T07:28:55Z</time>
      </trkpt>
      <trkpt lat="47.23368" lon="-1.72831">
        <ele>19.8</ele>
        <time>2013-09-01T07:28:59Z</time>
      </trkpt>
      <trkpt lat="47.23374" lon="-1.72845">
        <ele>20</ele>
        <time>2013-09-01T07:29:03Z</time>
      </trkpt>
      <trkpt lat="47.23378" lon="-1.72862">
        <ele>20.4</ele>
        <time>2013-09-01T07:29:07Z</time>
      </trkpt>
      <trkpt lat="47.23383" lon="-1.72879">
        <ele>19</ele>
        <time>2013-09-01T07:29:11Z</time>
      </trkpt>
      <trkpt lat="47.23386" lon="-1.72896">
        <ele>18.5</ele>
        <time>2013-09-01T07:29:15Z</time>
      </trkpt>
      <trkpt lat="47.23387" lon="-1.72913">
        <ele>18.5</ele>
        <time>2013-09-01T07:29:19Z</time>
      </trkpt>
      <trkpt lat="47.23389" lon="-1.72929">
        <ele>18.9</ele>
        <time>2013-09-01T07:29:23Z</time>
      </trkpt>
      <trkpt lat="47.23395" lon="-1.72945">
        <ele>14.3</ele>
        <time>2013-09-01T07:29:27Z</time>
      </trkpt>
      <trkpt lat="47.23401" lon="-1.72958">
        <ele>15.6</ele>
        <time>2013-09-01T07:29:31Z</time>
      </trkpt>
      <trkpt lat="47.23407" lon="-1.72974">
        <ele>17.1</ele>
        <time>2013-09-01T07:29:35Z</time>
      </trkpt>
      <trkpt lat="47.23415" lon="-1.72989">
        <ele>19.4</ele>
        <time>2013-09-01T07:29:39Z</time>
      </trkpt>
      <trkpt lat="47.23421" lon="-1.73011">
        <ele>19.8</ele>
        <time>2013-09-01T07:29:43Z</time>
      </trkpt>
      <trkpt lat="47.23425" lon="-1.73027">
        <ele>18.5</ele>
        <time>2013-09-01T07:29:47Z</time>
      </trkpt>
      <trkpt lat="47.23433" lon="-1.7306">
        <ele>18.4</ele>
        <time>2013-09-01T07:29:55Z</time>
      </trkpt>
      <trkpt lat="47.23438" lon="-1.73077">
        <ele>23.8</ele>
        <time>2013-09-01T07:29:59Z</time>
      </trkpt>
      <trkpt lat="47.23443" lon="-1.7309">
        <ele>30.9</ele>
        <time>2013-09-01T07:30:03Z</time>
      </trkpt>
      <trkpt lat="47.23447" lon="-1.73106">
        <ele>37.2</ele>
        <time>2013-09-01T07:30:07Z</time>
      </trkpt>
      <trkpt lat="47.23449" lon="-1.73128">
        <ele>34.9</ele>
        <time>2013-09-01T07:30:11Z</time>
      </trkpt>
      <trkpt lat="47.23449" lon="-1.73159">
        <ele>32.4</ele>
        <time>2013-09-01T07:30:15Z</time>
      </trkpt>
      <trkpt lat="47.23453" lon="-1.73192">
        <ele>31.1</ele>
        <time>2013-09-01T07:30:19Z</time>
      </trkpt>
      <trkpt lat="47.23459" lon="-1.73218">
        <ele>29.3</ele>
        <time>2013-09-01T07:30:23Z</time>
      </trkpt>
      <trkpt lat="47.23464" lon="-1.73249">
        <ele>25.1</ele>
        <time>2013-09-01T07:30:27Z</time>
      </trkpt>
      <trkpt lat="47.23475" lon="-1.73279">
        <ele>21.1</ele>
        <time>2013-09-01T07:30:31Z</time>
      </trkpt>
      <trkpt lat="47.23479" lon="-1.73301">
        <ele>20.7</ele>
        <time>2013-09-01T07:30:35Z</time>
      </trkpt>
      <trkpt lat="47.23486" lon="-1.73332">
        <ele>17.8</ele>
        <time>2013-09-01T07:30:39Z</time>
      </trkpt>
      <trkpt lat="47.23488" lon="-1.73351">
        <ele>18.5</ele>
        <time>2013-09-01T07:30:43Z</time>
      </trkpt>
      <trkpt lat="47.23486" lon="-1.73377">
        <ele>20.5</ele>
        <time>2013-09-01T07:30:51Z</time>
      </trkpt>
      <trkpt lat="47.2349" lon="-1.73405">
        <ele>18.6</ele>
        <time>2013-09-01T07:31:03Z</time>
      </trkpt>
      <trkpt lat="47.23489" lon="-1.73427">
        <ele>17.1</ele>
        <time>2013-09-01T07:31:07Z</time>
      </trkpt>
      <trkpt lat="47.23488" lon="-1.7345">
        <ele>15.8</ele>
        <time>2013-09-01T07:31:11Z</time>
      </trkpt>
      <trkpt lat="47.23488" lon="-1.73471">
        <ele>14.7</ele>
        <time>2013-09-01T07:31:15Z</time>
      </trkpt>
      <trkpt lat="47.23485" lon="-1.73493">
        <ele>11.9</ele>
        <time>2013-09-01T07:31:51Z</time>
      </trkpt>
      <trkpt lat="47.23484" lon="-1.73515">
        <ele>11.2</ele>
        <time>2013-09-01T07:31:55Z</time>
      </trkpt>
      <trkpt lat="47.23488" lon="-1.73543">
        <ele>12</ele>
        <time>2013-09-01T07:31:59Z</time>
      </trkpt>
      <trkpt lat="47.23496" lon="-1.7357">
        <ele>12.3</ele>
        <time>2013-09-01T07:32:03Z</time>
      </trkpt>
      <trkpt lat="47.23493" lon="-1.73607">
        <ele>12</ele>
        <time>2013-09-01T07:32:07Z</time>
      </trkpt>
      <trkpt lat="47.23489" lon="-1.73634">
        <ele>11.8</ele>
        <time>2013-09-01T07:32:11Z</time>
      </trkpt>
      <trkpt lat="47.235" lon="-1.73645">
        <ele>7.3</ele>
        <time>2013-09-01T07:32:19Z</time>
      </trkpt>
      <trkpt lat="47.23507" lon="-1.73659">
        <ele>8.4</ele>
        <time>2013-09-01T07:32:23Z</time>
      </trkpt>
      <trkpt lat="47.23514" lon="-1.73678">
        <ele>7.4</ele>
        <time>2013-09-01T07:32:27Z</time>
      </trkpt>
      <trkpt lat="47.2352" lon="-1.73691">
        <ele>5.9</ele>
        <time>2013-09-01T07:32:31Z</time>
      </trkpt>
      <trkpt lat="47.23523" lon="-1.73703">
        <ele>0.5</ele>
        <time>2013-09-01T07:32:35Z</time>
      </trkpt>
      <trkpt lat="47.23517" lon="-1.73713">
        <ele>-1.2</ele>
        <time>2013-09-01T07:32:39Z</time>
      </trkpt>
      <trkpt lat="47.23507" lon="-1.73732">
        <ele>-2.6</ele>
        <time>2013-09-01T07:32:43Z</time>
      </trkpt>
      <trkpt lat="47.23495" lon="-1.73752">
        <ele>-3.1</ele>
        <time>2013-09-01T07:32:47Z</time>
      </trkpt>
      <trkpt lat="47.23486" lon="-1.73766">
        <ele>-2.1</ele>
        <time>2013-09-01T07:32:51Z</time>
      </trkpt>
      <trkpt lat="47.23471" lon="-1.73793">
        <ele>2.3</ele>
        <time>2013-09-01T07:32:55Z</time>
      </trkpt>
      <trkpt lat="47.23457" lon="-1.7381">
        <ele>4.6</ele>
        <time>2013-09-01T07:32:59Z</time>
      </trkpt>
      <trkpt lat="47.23448" lon="-1.73825">
        <ele>5</ele>
        <time>2013-09-01T07:33:03Z</time>
      </trkpt>
      <trkpt lat="47.23437" lon="-1.7384">
        <ele>5.7</ele>
        <time>2013-09-01T07:33:07Z</time>
      </trkpt>
      <trkpt lat="47.23426" lon="-1.73849">
        <ele>6.8</ele>
        <time>2013-09-01T07:33:11Z</time>
      </trkpt>
      <trkpt lat="47.23414" lon="-1.73861">
        <ele>4</ele>
        <time>2013-09-01T07:33:15Z</time>
      </trkpt>
      <trkpt lat="47.23405" lon="-1.73879">
        <ele>1.5</ele>
        <time>2013-09-01T07:33:19Z</time>
      </trkpt>
      <trkpt lat="47.23404" lon="-1.73898">
        <ele>1.9</ele>
        <time>2013-09-01T07:33:23Z</time>
      </trkpt>
      <trkpt lat="47.23404" lon="-1.73913">
        <ele>3.3</ele>
        <time>2013-09-01T07:33:27Z</time>
      </trkpt>
      <trkpt lat="47.23405" lon="-1.73929">
        <ele>3.2</ele>
        <time>2013-09-01T07:33:31Z</time>
      </trkpt>
      <trkpt lat="47.23404" lon="-1.73946">
        <ele>3.3</ele>
        <time>2013-09-01T07:33:35Z</time>
      </trkpt>
      <trkpt lat="47.23398" lon="-1.73963">
        <ele>4.5</ele>
        <time>2013-09-01T07:33:39Z</time>
      </trkpt>
      <trkpt lat="47.23388" lon="-1.73977">
        <ele>6.8</ele>
        <time>2013-09-01T07:33:43Z</time>
      </trkpt>
      <trkpt lat="47.23378" lon="-1.73991">
        <ele>7.3</ele>
        <time>2013-09-01T07:33:47Z</time>
      </trkpt>
      <trkpt lat="47.23368" lon="-1.7402">
        <ele>6</ele>
        <time>2013-09-01T07:33:55Z</time>
      </trkpt>
      <trkpt lat="47.23365" lon="-1.74038">
        <ele>6.6</ele>
        <time>2013-09-01T07:33:59Z</time>
      </trkpt>
      <trkpt lat="47.23359" lon="-1.74055">
        <ele>6.7</ele>
        <time>2013-09-01T07:34:03Z</time>
      </trkpt>
      <trkpt lat="47.23353" lon="-1.74069">
        <ele>8.2</ele>
        <time>2013-09-01T07:34:07Z</time>
      </trkpt>
      <trkpt lat="47.23345" lon="-1.74084">
        <ele>8.4</ele>
        <time>2013-09-01T07:34:11Z</time>
      </trkpt>
      <trkpt lat="47.2334" lon="-1.74095">
        <ele>9.3</ele>
        <time>2013-09-01T07:34:14Z</time>
      </trkpt>
      <trkpt lat="47.23333" lon="-1.74108">
        <ele>9.3</ele>
        <time>2013-09-01T07:34:18Z</time>
      </trkpt>
      <trkpt lat="47.23325" lon="-1.74121">
        <ele>9.8</ele>
        <time>2013-09-01T07:34:22Z</time>
      </trkpt>
      <trkpt lat="47.23315" lon="-1.74134">
        <ele>11.6</ele>
        <time>2013-09-01T07:34:26Z</time>
      </trkpt>
      <trkpt lat="47.23307" lon="-1.74149">
        <ele>11.3</ele>
        <time>2013-09-01T07:34:30Z</time>
      </trkpt>
      <trkpt lat="47.23299" lon="-1.74164">
        <ele>12.9</ele>
        <time>2013-09-01T07:34:34Z</time>
      </trkpt>
      <trkpt lat="47.23291" lon="-1.74181">
        <ele>12.9</ele>
        <time>2013-09-01T07:34:38Z</time>
      </trkpt>
      <trkpt lat="47.23279" lon="-1.74201">
        <ele>13.4</ele>
        <time>2013-09-01T07:34:42Z</time>
      </trkpt>
      <trkpt lat="47.23261" lon="-1.74224">
        <ele>15.4</ele>
        <time>2013-09-01T07:34:46Z</time>
      </trkpt>
      <trkpt lat="47.23255" lon="-1.7424">
        <ele>13.7</ele>
        <time>2013-09-01T07:34:50Z</time>
      </trkpt>
      <trkpt lat="47.23263" lon="-1.74248">
        <ele>9.8</ele>
        <time>2013-09-01T07:34:58Z</time>
      </trkpt>
      <trkpt lat="47.23275" lon="-1.74255">
        <ele>9</ele>
        <time>2013-09-01T07:35:06Z</time>
      </trkpt>
      <trkpt lat="47.23287" lon="-1.74262">
        <ele>7.4</ele>
        <time>2013-09-01T07:35:10Z</time>
      </trkpt>
      <trkpt lat="47.23302" lon="-1.74273">
        <ele>6.8</ele>
        <time>2013-09-01T07:35:14Z</time>
      </trkpt>
      <trkpt lat="47.23317" lon="-1.74283">
        <ele>4</ele>
        <time>2013-09-01T07:35:18Z</time>
      </trkpt>
      <trkpt lat="47.23331" lon="-1.74292">
        <ele>2.9</ele>
        <time>2013-09-01T07:35:22Z</time>
      </trkpt>
      <trkpt lat="47.23347" lon="-1.74304">
        <ele>2.8</ele>
        <time>2013-09-01T07:35:26Z</time>
      </trkpt>
      <trkpt lat="47.23366" lon="-1.74318">
        <ele>3.3</ele>
        <time>2013-09-01T07:35:30Z</time>
      </trkpt>
      <trkpt lat="47.23379" lon="-1.74329">
        <ele>3.6</ele>
        <time>2013-09-01T07:35:34Z</time>
      </trkpt>
      <trkpt lat="47.23392" lon="-1.74339">
        <ele>5.5</ele>
        <time>2013-09-01T07:35:38Z</time>
      </trkpt>
      <trkpt lat="47.23408" lon="-1.74344">
        <ele>8</ele>
        <time>2013-09-01T07:35:42Z</time>
      </trkpt>
      <trkpt lat="47.23425" lon="-1.74353">
        <ele>9.2</ele>
        <time>2013-09-01T07:35:46Z</time>
      </trkpt>
      <trkpt lat="47.23441" lon="-1.7436">
        <ele>8.7</ele>
        <time>2013-09-01T07:35:50Z</time>
      </trkpt>
      <trkpt lat="47.23459" lon="-1.74372">
        <ele>8.4</ele>
        <time>2013-09-01T07:35:54Z</time>
      </trkpt>
      <trkpt lat="47.23476" lon="-1.74384">
        <ele>9.7</ele>
        <time>2013-09-01T07:35:58Z</time>
      </trkpt>
      <trkpt lat="47.23486" lon="-1.74392">
        <ele>9.7</ele>
        <time>2013-09-01T07:36:02Z</time>
      </trkpt>
      <trkpt lat="47.23501" lon="-1.74404">
        <ele>7.2</ele>
        <time>2013-09-01T07:36:06Z</time>
      </trkpt>
      <trkpt lat="47.23519" lon="-1.7442">
        <ele>9.9</ele>
        <time>2013-09-01T07:36:10Z</time>
      </trkpt>
      <trkpt lat="47.23534" lon="-1.7443">
        <ele>7.8</ele>
        <time>2013-09-01T07:36:14Z</time>
      </trkpt>
      <trkpt lat="47.23551" lon="-1.74446">
        <ele>8.1</ele>
        <time>2013-09-01T07:36:18Z</time>
      </trkpt>
      <trkpt lat="47.23568" lon="-1.74458">
        <ele>10</ele>
        <time>2013-09-01T07:36:22Z</time>
      </trkpt>
      <trkpt lat="47.23597" lon="-1.74477">
        <ele>9.7</ele>
        <time>2013-09-01T07:36:26Z</time>
      </trkpt>
      <trkpt lat="47.23615" lon="-1.74486">
        <ele>9.9</ele>
        <time>2013-09-01T07:36:30Z</time>
      </trkpt>
      <trkpt lat="47.23634" lon="-1.74495">
        <ele>7.6</ele>
        <time>2013-09-01T07:36:34Z</time>
      </trkpt>
      <trkpt lat="47.23657" lon="-1.74504">
        <ele>8</ele>
        <time>2013-09-01T07:36:38Z</time>
      </trkpt>
      <trkpt lat="47.2368" lon="-1.74507">
        <ele>8.4</ele>
        <time>2013-09-01T07:36:42Z</time>
      </trkpt>
      <trkpt lat="47.23704" lon="-1.74511">
        <ele>7.8</ele>
        <time>2013-09-01T07:36:46Z</time>
      </trkpt>
      <trkpt lat="47.23741" lon="-1.74528">
        <ele>14.6</ele>
        <time>2013-09-01T07:36:50Z</time>
      </trkpt>
      <trkpt lat="47.23751" lon="-1.74527">
        <ele>13.9</ele>
        <time>2013-09-01T07:36:54Z</time>
      </trkpt>
      <trkpt lat="47.23768" lon="-1.74532">
        <ele>13.4</ele>
        <time>2013-09-01T07:36:58Z</time>
      </trkpt>
      <trkpt lat="47.2379" lon="-1.74535">
        <ele>11</ele>
        <time>2013-09-01T07:37:02Z</time>
      </trkpt>
      <trkpt lat="47.23807" lon="-1.74546">
        <ele>11.3</ele>
        <time>2013-09-01T07:37:06Z</time>
      </trkpt>
      <trkpt lat="47.23826" lon="-1.74562">
        <ele>10.8</ele>
        <time>2013-09-01T07:37:10Z</time>
      </trkpt>
      <trkpt lat="47.23839" lon="-1.74581">
        <ele>9</ele>
        <time>2013-09-01T07:37:14Z</time>
      </trkpt>
      <trkpt lat="47.23853" lon="-1.74601">
        <ele>9.8</ele>
        <time>2013-09-01T07:37:18Z</time>
      </trkpt>
      <trkpt lat="47.23862" lon="-1.74624">
        <ele>10.2</ele>
        <time>2013-09-01T07:37:22Z</time>
      </trkpt>
      <trkpt lat="47.23871" lon="-1.74645">
        <ele>8.1</ele>
        <time>2013-09-01T07:37:26Z</time>
      </trkpt>
      <trkpt lat="47.23882" lon="-1.74664">
        <ele>8.1</ele>
        <time>2013-09-01T07:37:31Z</time>
      </trkpt>
      <trkpt lat="47.23894" lon="-1.74682">
        <ele>7.1</ele>
        <time>2013-09-01T07:37:35Z</time>
      </trkpt>
      <trkpt lat="47.23905" lon="-1.74693">
        <ele>7.6</ele>
        <time>2013-09-01T07:37:39Z</time>
      </trkpt>
      <trkpt lat="47.23917" lon="-1.7471">
        <ele>7.3</ele>
        <time>2013-09-01T07:37:43Z</time>
      </trkpt>
      <trkpt lat="47.23931" lon="-1.74728">
        <ele>6.8</ele>
        <time>2013-09-01T07:37:47Z</time>
      </trkpt>
      <trkpt lat="47.23948" lon="-1.74721">
        <ele>7.8</ele>
        <time>2013-09-01T07:37:51Z</time>
      </trkpt>
      <trkpt lat="47.23959" lon="-1.74711">
        <ele>11.2</ele>
        <time>2013-09-01T07:37:55Z</time>
      </trkpt>
      <trkpt lat="47.23986" lon="-1.74717">
        <ele>23.9</ele>
        <time>2013-09-01T07:38:03Z</time>
      </trkpt>
      <trkpt lat="47.23987" lon="-1.74704">
        <ele>20.1</ele>
        <time>2013-09-01T07:38:07Z</time>
      </trkpt>
      <trkpt lat="47.23991" lon="-1.74681">
        <ele>13.1</ele>
        <time>2013-09-01T07:38:11Z</time>
      </trkpt>
      <trkpt lat="47.24002" lon="-1.74651">
        <ele>10.1</ele>
        <time>2013-09-01T07:38:15Z</time>
      </trkpt>
      <trkpt lat="47.2401" lon="-1.74624">
        <ele>9.7</ele>
        <time>2013-09-01T07:38:19Z</time>
      </trkpt>
      <trkpt lat="47.2401" lon="-1.74603">
        <ele>10.8</ele>
        <time>2013-09-01T07:38:23Z</time>
      </trkpt>
      <trkpt lat="47.24017" lon="-1.7458">
        <ele>8.7</ele>
        <time>2013-09-01T07:38:27Z</time>
      </trkpt>
      <trkpt lat="47.24028" lon="-1.74561">
        <ele>10.8</ele>
        <time>2013-09-01T07:38:31Z</time>
      </trkpt>
      <trkpt lat="47.2403" lon="-1.74542">
        <ele>13.7</ele>
        <time>2013-09-01T07:38:35Z</time>
      </trkpt>
      <trkpt lat="47.24027" lon="-1.74524">
        <ele>12.9</ele>
        <time>2013-09-01T07:38:39Z</time>
      </trkpt>
      <trkpt lat="47.24024" lon="-1.74509">
        <ele>11.2</ele>
        <time>2013-09-01T07:38:43Z</time>
      </trkpt>
      <trkpt lat="47.24021" lon="-1.74493">
        <ele>11.2</ele>
        <time>2013-09-01T07:38:47Z</time>
      </trkpt>
      <trkpt lat="47.24017" lon="-1.74474">
        <ele>9.2</ele>
        <time>2013-09-01T07:38:51Z</time>
      </trkpt>
      <trkpt lat="47.24014" lon="-1.74454">
        <ele>9.5</ele>
        <time>2013-09-01T07:38:55Z</time>
      </trkpt>
      <trkpt lat="47.2401" lon="-1.74438">
        <ele>9</ele>
        <time>2013-09-01T07:38:59Z</time>
      </trkpt>
      <trkpt lat="47.24005" lon="-1.74415">
        <ele>9.6</ele>
        <time>2013-09-01T07:39:03Z</time>
      </trkpt>
      <trkpt lat="47.24003" lon="-1.74397">
        <ele>8.6</ele>
        <time>2013-09-01T07:39:07Z</time>
      </trkpt>
      <trkpt lat="47.24" lon="-1.74376">
        <ele>6.6</ele>
        <time>2013-09-01T07:39:11Z</time>
      </trkpt>
      <trkpt lat="47.23996" lon="-1.7436">
        <ele>6.6</ele>
        <time>2013-09-01T07:39:15Z</time>
      </trkpt>
      <trkpt lat="47.23996" lon="-1.74341">
        <ele>8.1</ele>
        <time>2013-09-01T07:39:19Z</time>
      </trkpt>
      <trkpt lat="47.23998" lon="-1.7432">
        <ele>7.4</ele>
        <time>2013-09-01T07:39:23Z</time>
      </trkpt>
      <trkpt lat="47.24" lon="-1.74304">
        <ele>3.7</ele>
        <time>2013-09-01T07:39:27Z</time>
      </trkpt>
      <trkpt lat="47.24003" lon="-1.74289">
        <ele>5.3</ele>
        <time>2013-09-01T07:39:31Z</time>
      </trkpt>
      <trkpt lat="47.24005" lon="-1.74273">
        <ele>5.6</ele>
        <time>2013-09-01T07:39:35Z</time>
      </trkpt>
      <trkpt lat="47.24006" lon="-1.74253">
        <ele>9.4</ele>
        <time>2013-09-01T07:39:39Z</time>
      </trkpt>
      <trkpt lat="47.24009" lon="-1.74228">
        <ele>10.4</ele>
        <time>2013-09-01T07:39:43Z</time>
      </trkpt>
      <trkpt lat="47.24015" lon="-1.7421">
        <ele>9.4</ele>
        <time>2013-09-01T07:39:47Z</time>
      </trkpt>
      <trkpt lat="47.24018" lon="-1.74187">
        <ele>7.2</ele>
        <time>2013-09-01T07:39:55Z</time>
      </trkpt>
      <trkpt lat="47.24025" lon="-1.74161">
        <ele>4.3</ele>
        <time>2013-09-01T07:40:03Z</time>
      </trkpt>
      <trkpt lat="47.24032" lon="-1.74151">
        <ele>6.3</ele>
        <time>2013-09-01T07:40:07Z</time>
      </trkpt>
      <trkpt lat="47.24036" lon="-1.74137">
        <ele>7.8</ele>
        <time>2013-09-01T07:40:11Z</time>
      </trkpt>
      <trkpt lat="47.24044" lon="-1.74124">
        <ele>13.7</ele>
        <time>2013-09-01T07:40:15Z</time>
      </trkpt>
      <trkpt lat="47.24061" lon="-1.74115">
        <ele>8.7</ele>
        <time>2013-09-01T07:40:23Z</time>
      </trkpt>
      <trkpt lat="47.24078" lon="-1.741">
        <ele>5.5</ele>
        <time>2013-09-01T07:40:27Z</time>
      </trkpt>
      <trkpt lat="47.24089" lon="-1.74082">
        <ele>3.4</ele>
        <time>2013-09-01T07:40:31Z</time>
      </trkpt>
      <trkpt lat="47.24095" lon="-1.74065">
        <ele>0.6</ele>
        <time>2013-09-01T07:40:35Z</time>
      </trkpt>
      <trkpt lat="47.24101" lon="-1.74047">
        <ele>0.1</ele>
        <time>2013-09-01T07:40:39Z</time>
      </trkpt>
      <trkpt lat="47.24115" lon="-1.74032">
        <ele>2.3</ele>
        <time>2013-09-01T07:40:43Z</time>
      </trkpt>
      <trkpt lat="47.24131" lon="-1.7402">
        <ele>5.1</ele>
        <time>2013-09-01T07:40:47Z</time>
      </trkpt>
      <trkpt lat="47.24148" lon="-1.74012">
        <ele>10.5</ele>
        <time>2013-09-01T07:40:51Z</time>
      </trkpt>
      <trkpt lat="47.24161" lon="-1.74004">
        <ele>7.8</ele>
        <time>2013-09-01T07:40:55Z</time>
      </trkpt>
      <trkpt lat="47.24175" lon="-1.73993">
        <ele>8.2</ele>
        <time>2013-09-01T07:41:03Z</time>
      </trkpt>
      <trkpt lat="47.24183" lon="-1.73987">
        <ele>8.7</ele>
        <time>2013-09-01T07:41:07Z</time>
      </trkpt>
      <trkpt lat="47.24197" lon="-1.73983">
        <ele>8.7</ele>
        <time>2013-09-01T07:41:11Z</time>
      </trkpt>
      <trkpt lat="47.24211" lon="-1.73983">
        <ele>8.3</ele>
        <time>2013-09-01T07:41:15Z</time>
      </trkpt>
      <trkpt lat="47.24229" lon="-1.73987">
        <ele>10.2</ele>
        <time>2013-09-01T07:41:19Z</time>
      </trkpt>
      <trkpt lat="47.24241" lon="-1.7399">
        <ele>14.5</ele>
        <time>2013-09-01T07:41:23Z</time>
      </trkpt>
      <trkpt lat="47.24251" lon="-1.73991">
        <ele>13.6</ele>
        <time>2013-09-01T07:41:27Z</time>
      </trkpt>
      <trkpt lat="47.24263" lon="-1.73988">
        <ele>11.3</ele>
        <time>2013-09-01T07:41:31Z</time>
      </trkpt>
      <trkpt lat="47.24274" lon="-1.73984">
        <ele>10.6</ele>
        <time>2013-09-01T07:41:35Z</time>
      </trkpt>
      <trkpt lat="47.24285" lon="-1.73982">
        <ele>10.6</ele>
        <time>2013-09-01T07:41:39Z</time>
      </trkpt>
      <trkpt lat="47.243" lon="-1.73975">
        <ele>14.1</ele>
        <time>2013-09-01T07:41:43Z</time>
      </trkpt>
      <trkpt lat="47.24317" lon="-1.7397">
        <ele>15.9</ele>
        <time>2013-09-01T07:41:47Z</time>
      </trkpt>
      <trkpt lat="47.2433" lon="-1.73969">
        <ele>16</ele>
        <time>2013-09-01T07:41:51Z</time>
      </trkpt>
      <trkpt lat="47.24342" lon="-1.73977">
        <ele>15.4</ele>
        <time>2013-09-01T07:41:55Z</time>
      </trkpt>
      <trkpt lat="47.24352" lon="-1.73985">
        <ele>13.5</ele>
        <time>2013-09-01T07:41:59Z</time>
      </trkpt>
      <trkpt lat="47.24362" lon="-1.73986">
        <ele>13.9</ele>
        <time>2013-09-01T07:42:07Z</time>
      </trkpt>
      <trkpt lat="47.24373" lon="-1.74004">
        <ele>17.5</ele>
        <time>2013-09-01T07:43:46Z</time>
      </trkpt>
      <trkpt lat="47.24386" lon="-1.74018">
        <ele>14.4</ele>
        <time>2013-09-01T07:43:50Z</time>
      </trkpt>
      <trkpt lat="47.24398" lon="-1.74027">
        <ele>16.2</ele>
        <time>2013-09-01T07:43:54Z</time>
      </trkpt>
      <trkpt lat="47.24406" lon="-1.74034">
        <ele>17.2</ele>
        <time>2013-09-01T07:43:58Z</time>
      </trkpt>
      <trkpt lat="47.24417" lon="-1.74046">
        <ele>15.8</ele>
        <time>2013-09-01T07:44:02Z</time>
      </trkpt>
      <trkpt lat="47.24431" lon="-1.74065">
        <ele>15.8</ele>
        <time>2013-09-01T07:44:06Z</time>
      </trkpt>
      <trkpt lat="47.24444" lon="-1.74085">
        <ele>19</ele>
        <time>2013-09-01T07:44:10Z</time>
      </trkpt>
      <trkpt lat="47.24457" lon="-1.74104">
        <ele>18.4</ele>
        <time>2013-09-01T07:44:14Z</time>
      </trkpt>
      <trkpt lat="47.24469" lon="-1.74119">
        <ele>18.6</ele>
        <time>2013-09-01T07:44:18Z</time>
      </trkpt>
      <trkpt lat="47.24478" lon="-1.74133">
        <ele>21</ele>
        <time>2013-09-01T07:44:22Z</time>
      </trkpt>
      <trkpt lat="47.24488" lon="-1.74149">
        <ele>20.5</ele>
        <time>2013-09-01T07:44:26Z</time>
      </trkpt>
      <trkpt lat="47.24499" lon="-1.74164">
        <ele>23.3</ele>
        <time>2013-09-01T07:44:30Z</time>
      </trkpt>
      <trkpt lat="47.24509" lon="-1.7418">
        <ele>23</ele>
        <time>2013-09-01T07:44:34Z</time>
      </trkpt>
      <trkpt lat="47.24519" lon="-1.74194">
        <ele>23.2</ele>
        <time>2013-09-01T07:44:38Z</time>
      </trkpt>
      <trkpt lat="47.24529" lon="-1.74207">
        <ele>22.4</ele>
        <time>2013-09-01T07:44:42Z</time>
      </trkpt>
      <trkpt lat="47.24539" lon="-1.74221">
        <ele>21.8</ele>
        <time>2013-09-01T07:44:46Z</time>
      </trkpt>
      <trkpt lat="47.24549" lon="-1.74235">
        <ele>22.3</ele>
        <time>2013-09-01T07:44:50Z</time>
      </trkpt>
      <trkpt lat="47.2456" lon="-1.74247">
        <ele>22.6</ele>
        <time>2013-09-01T07:44:54Z</time>
      </trkpt>
      <trkpt lat="47.2457" lon="-1.74262">
        <ele>22.7</ele>
        <time>2013-09-01T07:44:58Z</time>
      </trkpt>
      <trkpt lat="47.24582" lon="-1.74276">
        <ele>23</ele>
        <time>2013-09-01T07:45:02Z</time>
      </trkpt>
      <trkpt lat="47.24593" lon="-1.74291">
        <ele>23.3</ele>
        <time>2013-09-01T07:45:06Z</time>
      </trkpt>
      <trkpt lat="47.24604" lon="-1.74306">
        <ele>23.1</ele>
        <time>2013-09-01T07:45:10Z</time>
      </trkpt>
      <trkpt lat="47.24615" lon="-1.74321">
        <ele>24.3</ele>
        <time>2013-09-01T07:45:14Z</time>
      </trkpt>
      <trkpt lat="47.24626" lon="-1.74336">
        <ele>24.1</ele>
        <time>2013-09-01T07:45:18Z</time>
      </trkpt>
      <trkpt lat="47.24636" lon="-1.74352">
        <ele>24</ele>
        <time>2013-09-01T07:45:22Z</time>
      </trkpt>
      <trkpt lat="47.24645" lon="-1.74367">
        <ele>23</ele>
        <time>2013-09-01T07:45:26Z</time>
      </trkpt>
      <trkpt lat="47.24655" lon="-1.74381">
        <ele>23.6</ele>
        <time>2013-09-01T07:45:30Z</time>
      </trkpt>
      <trkpt lat="47.24666" lon="-1.74394">
        <ele>23.4</ele>
        <time>2013-09-01T07:45:34Z</time>
      </trkpt>
      <trkpt lat="47.24676" lon="-1.74407">
        <ele>23.3</ele>
        <time>2013-09-01T07:45:38Z</time>
      </trkpt>
      <trkpt lat="47.24687" lon="-1.7442">
        <ele>22.8</ele>
        <time>2013-09-01T07:45:42Z</time>
      </trkpt>
      <trkpt lat="47.24698" lon="-1.74434">
        <ele>24.5</ele>
        <time>2013-09-01T07:45:46Z</time>
      </trkpt>
      <trkpt lat="47.24708" lon="-1.74449">
        <ele>23.7</ele>
        <time>2013-09-01T07:45:50Z</time>
      </trkpt>
      <trkpt lat="47.24719" lon="-1.74463">
        <ele>23.4</ele>
        <time>2013-09-01T07:45:54Z</time>
      </trkpt>
      <trkpt lat="47.2473" lon="-1.74477">
        <ele>23.1</ele>
        <time>2013-09-01T07:45:58Z</time>
      </trkpt>
      <trkpt lat="47.24743" lon="-1.74492">
        <ele>23.2</ele>
        <time>2013-09-01T07:46:02Z</time>
      </trkpt>
      <trkpt lat="47.24757" lon="-1.7451">
        <ele>23.4</ele>
        <time>2013-09-01T07:46:07Z</time>
      </trkpt>
      <trkpt lat="47.24771" lon="-1.7453">
        <ele>22</ele>
        <time>2013-09-01T07:46:11Z</time>
      </trkpt>
      <trkpt lat="47.24786" lon="-1.7455">
        <ele>21</ele>
        <time>2013-09-01T07:46:15Z</time>
      </trkpt>
      <trkpt lat="47.24793" lon="-1.74565">
        <ele>21.2</ele>
        <time>2013-09-01T07:46:19Z</time>
      </trkpt>
      <trkpt lat="47.24786" lon="-1.74584">
        <ele>20.4</ele>
        <time>2013-09-01T07:46:27Z</time>
      </trkpt>
      <trkpt lat="47.24775" lon="-1.74593">
        <ele>19.4</ele>
        <time>2013-09-01T07:46:31Z</time>
      </trkpt>
      <trkpt lat="47.24759" lon="-1.74608">
        <ele>20.1</ele>
        <time>2013-09-01T07:46:39Z</time>
      </trkpt>
      <trkpt lat="47.24751" lon="-1.74632">
        <ele>19.8</ele>
        <time>2013-09-01T07:46:43Z</time>
      </trkpt>
      <trkpt lat="47.24757" lon="-1.74656">
        <ele>22.4</ele>
        <time>2013-09-01T07:46:47Z</time>
      </trkpt>
      <trkpt lat="47.24765" lon="-1.74677">
        <ele>22.1</ele>
        <time>2013-09-01T07:46:51Z</time>
      </trkpt>
      <trkpt lat="47.24771" lon="-1.74697">
        <ele>22</ele>
        <time>2013-09-01T07:46:55Z</time>
      </trkpt>
      <trkpt lat="47.24777" lon="-1.74716">
        <ele>24.2</ele>
        <time>2013-09-01T07:46:59Z</time>
      </trkpt>
      <trkpt lat="47.24784" lon="-1.74729">
        <ele>24.1</ele>
        <time>2013-09-01T07:47:03Z</time>
      </trkpt>
      <trkpt lat="47.24793" lon="-1.74738">
        <ele>23.6</ele>
        <time>2013-09-01T07:47:07Z</time>
      </trkpt>
      <trkpt lat="47.24803" lon="-1.74745">
        <ele>23.4</ele>
        <time>2013-09-01T07:47:11Z</time>
      </trkpt>
      <trkpt lat="47.24816" lon="-1.74752">
        <ele>23.2</ele>
        <time>2013-09-01T07:47:15Z</time>
      </trkpt>
      <trkpt lat="47.2483" lon="-1.74764">
        <ele>22.9</ele>
        <time>2013-09-01T07:47:19Z</time>
      </trkpt>
      <trkpt lat="47.2484" lon="-1.7478">
        <ele>24.4</ele>
        <time>2013-09-01T07:47:23Z</time>
      </trkpt>
      <trkpt lat="47.2485" lon="-1.74796">
        <ele>23.8</ele>
        <time>2013-09-01T07:47:27Z</time>
      </trkpt>
      <trkpt lat="47.24862" lon="-1.74817">
        <ele>23.7</ele>
        <time>2013-09-01T07:47:31Z</time>
      </trkpt>
      <trkpt lat="47.24873" lon="-1.74834">
        <ele>22.7</ele>
        <time>2013-09-01T07:47:35Z</time>
      </trkpt>
      <trkpt lat="47.24883" lon="-1.74854">
        <ele>24</ele>
        <time>2013-09-01T07:47:39Z</time>
      </trkpt>
      <trkpt lat="47.24892" lon="-1.74873">
        <ele>24.8</ele>
        <time>2013-09-01T07:47:43Z</time>
      </trkpt>
      <trkpt lat="47.249" lon="-1.74893">
        <ele>23.8</ele>
        <time>2013-09-01T07:47:47Z</time>
      </trkpt>
      <trkpt lat="47.24905" lon="-1.74914">
        <ele>23.4</ele>
        <time>2013-09-01T07:47:51Z</time>
      </trkpt>
      <trkpt lat="47.24909" lon="-1.74934">
        <ele>27.2</ele>
        <time>2013-09-01T07:47:55Z</time>
      </trkpt>
      <trkpt lat="47.24917" lon="-1.74944">
        <ele>27</ele>
        <time>2013-09-01T07:47:59Z</time>
      </trkpt>
      <trkpt lat="47.24926" lon="-1.7496">
        <ele>28.1</ele>
        <time>2013-09-01T07:48:03Z</time>
      </trkpt>
      <trkpt lat="47.24934" lon="-1.74978">
        <ele>27.4</ele>
        <time>2013-09-01T07:48:07Z</time>
      </trkpt>
      <trkpt lat="47.24939" lon="-1.74996">
        <ele>26.4</ele>
        <time>2013-09-01T07:48:11Z</time>
      </trkpt>
      <trkpt lat="47.24944" lon="-1.75013">
        <ele>26.4</ele>
        <time>2013-09-01T07:48:15Z</time>
      </trkpt>
      <trkpt lat="47.24948" lon="-1.75031">
        <ele>32.2</ele>
        <time>2013-09-01T07:48:19Z</time>
      </trkpt>
      <trkpt lat="47.24951" lon="-1.75047">
        <ele>31.3</ele>
        <time>2013-09-01T07:48:23Z</time>
      </trkpt>
      <trkpt lat="47.24956" lon="-1.75065">
        <ele>30.7</ele>
        <time>2013-09-01T07:48:27Z</time>
      </trkpt>
      <trkpt lat="47.24963" lon="-1.75084">
        <ele>30.2</ele>
        <time>2013-09-01T07:48:31Z</time>
      </trkpt>
      <trkpt lat="47.2497" lon="-1.751">
        <ele>29.5</ele>
        <time>2013-09-01T07:48:35Z</time>
      </trkpt>
      <trkpt lat="47.24979" lon="-1.75111">
        <ele>27.9</ele>
        <time>2013-09-01T07:48:39Z</time>
      </trkpt>
      <trkpt lat="47.2499" lon="-1.75122">
        <ele>28.2</ele>
        <time>2013-09-01T07:48:43Z</time>
      </trkpt>
      <trkpt lat="47.25001" lon="-1.75136">
        <ele>29.5</ele>
        <time>2013-09-01T07:48:47Z</time>
      </trkpt>
      <trkpt lat="47.2501" lon="-1.75153">
        <ele>27.1</ele>
        <time>2013-09-01T07:48:51Z</time>
      </trkpt>
      <trkpt lat="47.25027" lon="-1.75152">
        <ele>24</ele>
        <time>2013-09-01T07:48:59Z</time>
      </trkpt>
      <trkpt lat="47.25038" lon="-1.7514">
        <ele>26.5</ele>
        <time>2013-09-01T07:49:03Z</time>
      </trkpt>
      <trkpt lat="47.25048" lon="-1.75127">
        <ele>27.7</ele>
        <time>2013-09-01T07:49:07Z</time>
      </trkpt>
      <trkpt lat="47.25061" lon="-1.75116">
        <ele>20.3</ele>
        <time>2013-09-01T07:49:11Z</time>
      </trkpt>
      <trkpt lat="47.25078" lon="-1.75105">
        <ele>22.9</ele>
        <time>2013-09-01T07:49:15Z</time>
      </trkpt>
      <trkpt lat="47.25094" lon="-1.75093">
        <ele>24.6</ele>
        <time>2013-09-01T07:49:19Z</time>
      </trkpt>
      <trkpt lat="47.25108" lon="-1.75084">
        <ele>23</ele>
        <time>2013-09-01T07:49:23Z</time>
      </trkpt>
      <trkpt lat="47.25122" lon="-1.75074">
        <ele>23.7</ele>
        <time>2013-09-01T07:49:27Z</time>
      </trkpt>
      <trkpt lat="47.25135" lon="-1.75063">
        <ele>25.1</ele>
        <time>2013-09-01T07:49:31Z</time>
      </trkpt>
      <trkpt lat="47.25148" lon="-1.75054">
        <ele>25.7</ele>
        <time>2013-09-01T07:49:35Z</time>
      </trkpt>
      <trkpt lat="47.25162" lon="-1.75051">
        <ele>26</ele>
        <time>2013-09-01T07:49:39Z</time>
      </trkpt>
      <trkpt lat="47.25173" lon="-1.75064">
        <ele>18.7</ele>
        <time>2013-09-01T07:49:43Z</time>
      </trkpt>
      <trkpt lat="47.25184" lon="-1.75081">
        <ele>21.4</ele>
        <time>2013-09-01T07:49:47Z</time>
      </trkpt>
      <trkpt lat="47.25193" lon="-1.75093">
        <ele>22</ele>
        <time>2013-09-01T07:49:51Z</time>
      </trkpt>
      <trkpt lat="47.25201" lon="-1.75107">
        <ele>19.3</ele>
        <time>2013-09-01T07:49:55Z</time>
      </trkpt>
      <trkpt lat="47.25212" lon="-1.7512">
        <ele>19.3</ele>
        <time>2013-09-01T07:49:59Z</time>
      </trkpt>
      <trkpt lat="47.25223" lon="-1.75133">
        <ele>19.6</ele>
        <time>2013-09-01T07:50:03Z</time>
      </trkpt>
      <trkpt lat="47.25233" lon="-1.75146">
        <ele>20.7</ele>
        <time>2013-09-01T07:50:07Z</time>
      </trkpt>
      <trkpt lat="47.25243" lon="-1.75159">
        <ele>21.1</ele>
        <time>2013-09-01T07:50:11Z</time>
      </trkpt>
      <trkpt lat="47.25254" lon="-1.75173">
        <ele>20.5</ele>
        <time>2013-09-01T07:50:15Z</time>
      </trkpt>
      <trkpt lat="47.25265" lon="-1.75187">
        <ele>20</ele>
        <time>2013-09-01T07:50:19Z</time>
      </trkpt>
      <trkpt lat="47.25275" lon="-1.75202">
        <ele>20.2</ele>
        <time>2013-09-01T07:50:23Z</time>
      </trkpt>
      <trkpt lat="47.25285" lon="-1.75215">
        <ele>20.2</ele>
        <time>2013-09-01T07:50:27Z</time>
      </trkpt>
      <trkpt lat="47.25295" lon="-1.75228">
        <ele>20.7</ele>
        <time>2013-09-01T07:50:31Z</time>
      </trkpt>
      <trkpt lat="47.25306" lon="-1.75241">
        <ele>22.1</ele>
        <time>2013-09-01T07:50:35Z</time>
      </trkpt>
      <trkpt lat="47.25316" lon="-1.75255">
        <ele>22.1</ele>
        <time>2013-09-01T07:50:39Z</time>
      </trkpt>
      <trkpt lat="47.25326" lon="-1.75268">
        <ele>22</ele>
        <time>2013-09-01T07:50:43Z</time>
      </trkpt>
      <trkpt lat="47.25336" lon="-1.75282">
        <ele>20.2</ele>
        <time>2013-09-01T07:50:47Z</time>
      </trkpt>
      <trkpt lat="47.25345" lon="-1.75295">
        <ele>19.7</ele>
        <time>2013-09-01T07:50:51Z</time>
      </trkpt>
      <trkpt lat="47.25356" lon="-1.7531">
        <ele>19.3</ele>
        <time>2013-09-01T07:50:55Z</time>
      </trkpt>
      <trkpt lat="47.25367" lon="-1.75324">
        <ele>18</ele>
        <time>2013-09-01T07:50:59Z</time>
      </trkpt>
      <trkpt lat="47.25379" lon="-1.75339">
        <ele>17.5</ele>
        <time>2013-09-01T07:51:03Z</time>
      </trkpt>
      <trkpt lat="47.25389" lon="-1.75354">
        <ele>16.7</ele>
        <time>2013-09-01T07:51:07Z</time>
      </trkpt>
      <trkpt lat="47.25399" lon="-1.75366">
        <ele>16.1</ele>
        <time>2013-09-01T07:51:11Z</time>
      </trkpt>
      <trkpt lat="47.2541" lon="-1.7538">
        <ele>17.2</ele>
        <time>2013-09-01T07:51:15Z</time>
      </trkpt>
      <trkpt lat="47.2542" lon="-1.75394">
        <ele>17.3</ele>
        <time>2013-09-01T07:51:19Z</time>
      </trkpt>
      <trkpt lat="47.2543" lon="-1.75406">
        <ele>17.1</ele>
        <time>2013-09-01T07:51:22Z</time>
      </trkpt>
      <trkpt lat="47.25448" lon="-1.75431">
        <ele>15.8</ele>
        <time>2013-09-01T07:51:26Z</time>
      </trkpt>
      <trkpt lat="47.25462" lon="-1.75439">
        <ele>15.7</ele>
        <time>2013-09-01T07:51:30Z</time>
      </trkpt>
      <trkpt lat="47.25475" lon="-1.75467">
        <ele>21.5</ele>
        <time>2013-09-01T07:51:34Z</time>
      </trkpt>
      <trkpt lat="47.25492" lon="-1.75483">
        <ele>19.4</ele>
        <time>2013-09-01T07:51:38Z</time>
      </trkpt>
      <trkpt lat="47.25503" lon="-1.755">
        <ele>22.2</ele>
        <time>2013-09-01T07:51:42Z</time>
      </trkpt>
      <trkpt lat="47.25514" lon="-1.75518">
        <ele>22.3</ele>
        <time>2013-09-01T07:51:46Z</time>
      </trkpt>
      <trkpt lat="47.25529" lon="-1.75535">
        <ele>23.7</ele>
        <time>2013-09-01T07:51:50Z</time>
      </trkpt>
      <trkpt lat="47.2554" lon="-1.7555">
        <ele>22</ele>
        <time>2013-09-01T07:51:54Z</time>
      </trkpt>
      <trkpt lat="47.2555" lon="-1.75564">
        <ele>22.3</ele>
        <time>2013-09-01T07:51:58Z</time>
      </trkpt>
      <trkpt lat="47.2556" lon="-1.75577">
        <ele>21.6</ele>
        <time>2013-09-01T07:52:02Z</time>
      </trkpt>
      <trkpt lat="47.25572" lon="-1.75591">
        <ele>19.5</ele>
        <time>2013-09-01T07:52:06Z</time>
      </trkpt>
      <trkpt lat="47.25584" lon="-1.75607">
        <ele>21.5</ele>
        <time>2013-09-01T07:52:10Z</time>
      </trkpt>
      <trkpt lat="47.25596" lon="-1.75623">
        <ele>25.5</ele>
        <time>2013-09-01T07:52:14Z</time>
      </trkpt>
      <trkpt lat="47.25607" lon="-1.75639">
        <ele>23.4</ele>
        <time>2013-09-01T07:52:18Z</time>
      </trkpt>
      <trkpt lat="47.25617" lon="-1.75654">
        <ele>24.5</ele>
        <time>2013-09-01T07:52:22Z</time>
      </trkpt>
      <trkpt lat="47.25626" lon="-1.75666">
        <ele>22.8</ele>
        <time>2013-09-01T07:52:26Z</time>
      </trkpt>
      <trkpt lat="47.25637" lon="-1.75677">
        <ele>20.5</ele>
        <time>2013-09-01T07:52:30Z</time>
      </trkpt>
      <trkpt lat="47.25648" lon="-1.75694">
        <ele>23.1</ele>
        <time>2013-09-01T07:52:34Z</time>
      </trkpt>
      <trkpt lat="47.25658" lon="-1.7571">
        <ele>23.3</ele>
        <time>2013-09-01T07:52:38Z</time>
      </trkpt>
      <trkpt lat="47.25667" lon="-1.75724">
        <ele>23.8</ele>
        <time>2013-09-01T07:52:42Z</time>
      </trkpt>
      <trkpt lat="47.25677" lon="-1.75736">
        <ele>24.3</ele>
        <time>2013-09-01T07:52:46Z</time>
      </trkpt>
      <trkpt lat="47.25686" lon="-1.7575">
        <ele>25.8</ele>
        <time>2013-09-01T07:52:50Z</time>
      </trkpt>
      <trkpt lat="47.25694" lon="-1.75763">
        <ele>28.9</ele>
        <time>2013-09-01T07:52:54Z</time>
      </trkpt>
      <trkpt lat="47.25703" lon="-1.75778">
        <ele>25.9</ele>
        <time>2013-09-01T07:52:58Z</time>
      </trkpt>
      <trkpt lat="47.25712" lon="-1.75788">
        <ele>25.5</ele>
        <time>2013-09-01T07:53:02Z</time>
      </trkpt>
      <trkpt lat="47.25721" lon="-1.75796">
        <ele>26.3</ele>
        <time>2013-09-01T07:53:06Z</time>
      </trkpt>
      <trkpt lat="47.25728" lon="-1.75807">
        <ele>27.2</ele>
        <time>2013-09-01T07:53:10Z</time>
      </trkpt>
      <trkpt lat="47.25738" lon="-1.75822">
        <ele>26.7</ele>
        <time>2013-09-01T07:53:14Z</time>
      </trkpt>
      <trkpt lat="47.25747" lon="-1.75837">
        <ele>23.9</ele>
        <time>2013-09-01T07:53:18Z</time>
      </trkpt>
      <trkpt lat="47.25754" lon="-1.75849">
        <ele>23.2</ele>
        <time>2013-09-01T07:53:22Z</time>
      </trkpt>
      <trkpt lat="47.25762" lon="-1.75861">
        <ele>22.9</ele>
        <time>2013-09-01T07:53:26Z</time>
      </trkpt>
      <trkpt lat="47.25772" lon="-1.75873">
        <ele>20.5</ele>
        <time>2013-09-01T07:53:30Z</time>
      </trkpt>
      <trkpt lat="47.25785" lon="-1.75888">
        <ele>23.8</ele>
        <time>2013-09-01T07:53:34Z</time>
      </trkpt>
      <trkpt lat="47.25799" lon="-1.75904">
        <ele>23.7</ele>
        <time>2013-09-01T07:53:38Z</time>
      </trkpt>
      <trkpt lat="47.25812" lon="-1.75923">
        <ele>24</ele>
        <time>2013-09-01T07:53:42Z</time>
      </trkpt>
      <trkpt lat="47.25825" lon="-1.75941">
        <ele>23.2</ele>
        <time>2013-09-01T07:53:46Z</time>
      </trkpt>
      <trkpt lat="47.25838" lon="-1.7596">
        <ele>21.9</ele>
        <time>2013-09-01T07:53:50Z</time>
      </trkpt>
      <trkpt lat="47.25851" lon="-1.75977">
        <ele>21.8</ele>
        <time>2013-09-01T07:53:54Z</time>
      </trkpt>
      <trkpt lat="47.25865" lon="-1.75996">
        <ele>24</ele>
        <time>2013-09-01T07:53:58Z</time>
      </trkpt>
      <trkpt lat="47.25878" lon="-1.76014">
        <ele>22</ele>
        <time>2013-09-01T07:54:02Z</time>
      </trkpt>
      <trkpt lat="47.2589" lon="-1.76028">
        <ele>21</ele>
        <time>2013-09-01T07:54:06Z</time>
      </trkpt>
      <trkpt lat="47.25902" lon="-1.76041">
        <ele>21.6</ele>
        <time>2013-09-01T07:54:10Z</time>
      </trkpt>
      <trkpt lat="47.25917" lon="-1.7606">
        <ele>21.6</ele>
        <time>2013-09-01T07:54:14Z</time>
      </trkpt>
      <trkpt lat="47.25932" lon="-1.76077">
        <ele>21.9</ele>
        <time>2013-09-01T07:54:18Z</time>
      </trkpt>
      <trkpt lat="47.25943" lon="-1.76093">
        <ele>22.6</ele>
        <time>2013-09-01T07:54:22Z</time>
      </trkpt>
      <trkpt lat="47.25954" lon="-1.76109">
        <ele>22.9</ele>
        <time>2013-09-01T07:54:26Z</time>
      </trkpt>
      <trkpt lat="47.25968" lon="-1.76126">
        <ele>23.6</ele>
        <time>2013-09-01T07:54:30Z</time>
      </trkpt>
      <trkpt lat="47.25978" lon="-1.76136">
        <ele>24.5</ele>
        <time>2013-09-01T07:54:34Z</time>
      </trkpt>
      <trkpt lat="47.2599" lon="-1.76129">
        <ele>24.3</ele>
        <time>2013-09-01T07:54:43Z</time>
      </trkpt>
      <trkpt lat="47.25999" lon="-1.76115">
        <ele>24.4</ele>
        <time>2013-09-01T07:54:47Z</time>
      </trkpt>
      <trkpt lat="47.26008" lon="-1.76098">
        <ele>24.9</ele>
        <time>2013-09-01T07:54:51Z</time>
      </trkpt>
      <trkpt lat="47.26014" lon="-1.76082">
        <ele>25.5</ele>
        <time>2013-09-01T07:54:55Z</time>
      </trkpt>
      <trkpt lat="47.26021" lon="-1.76066">
        <ele>25.1</ele>
        <time>2013-09-01T07:54:59Z</time>
      </trkpt>
      <trkpt lat="47.26027" lon="-1.76051">
        <ele>24.1</ele>
        <time>2013-09-01T07:55:03Z</time>
      </trkpt>
      <trkpt lat="47.26033" lon="-1.76035">
        <ele>24.1</ele>
        <time>2013-09-01T07:55:07Z</time>
      </trkpt>
      <trkpt lat="47.26039" lon="-1.76015">
        <ele>22.8</ele>
        <time>2013-09-01T07:55:19Z</time>
      </trkpt>
      <trkpt lat="47.26047" lon="-1.75998">
        <ele>22.9</ele>
        <time>2013-09-01T07:55:23Z</time>
      </trkpt>
      <trkpt lat="47.26054" lon="-1.75981">
        <ele>22.8</ele>
        <time>2013-09-01T07:55:27Z</time>
      </trkpt>
      <trkpt lat="47.26062" lon="-1.75962">
        <ele>24.6</ele>
        <time>2013-09-01T07:55:31Z</time>
      </trkpt>
      <trkpt lat="47.26066" lon="-1.75946">
        <ele>24.4</ele>
        <time>2013-09-01T07:55:35Z</time>
      </trkpt>
      <trkpt lat="47.26072" lon="-1.75926">
        <ele>24.6</ele>
        <time>2013-09-01T07:55:39Z</time>
      </trkpt>
      <trkpt lat="47.26076" lon="-1.75907">
        <ele>24.5</ele>
        <time>2013-09-01T07:55:43Z</time>
      </trkpt>
      <trkpt lat="47.26082" lon="-1.7589">
        <ele>23.1</ele>
        <time>2013-09-01T07:55:47Z</time>
      </trkpt>
      <trkpt lat="47.26089" lon="-1.75871">
        <ele>21.9</ele>
        <time>2013-09-01T07:55:51Z</time>
      </trkpt>
      <trkpt lat="47.26098" lon="-1.7585">
        <ele>20.1</ele>
        <time>2013-09-01T07:55:55Z</time>
      </trkpt>
      <trkpt lat="47.26106" lon="-1.75829">
        <ele>18.5</ele>
        <time>2013-09-01T07:55:59Z</time>
      </trkpt>
      <trkpt lat="47.26113" lon="-1.75809">
        <ele>18.5</ele>
        <time>2013-09-01T07:56:03Z</time>
      </trkpt>
      <trkpt lat="47.26121" lon="-1.7579">
        <ele>18.8</ele>
        <time>2013-09-01T07:56:07Z</time>
      </trkpt>
      <trkpt lat="47.26128" lon="-1.75771">
        <ele>18.6</ele>
        <time>2013-09-01T07:56:11Z</time>
      </trkpt>
      <trkpt lat="47.26135" lon="-1.75752">
        <ele>17.6</ele>
        <time>2013-09-01T07:56:15Z</time>
      </trkpt>
      <trkpt lat="47.26141" lon="-1.75734">
        <ele>18</ele>
        <time>2013-09-01T07:56:19Z</time>
      </trkpt>
      <trkpt lat="47.26146" lon="-1.7572">
        <ele>17.3</ele>
        <time>2013-09-01T07:56:23Z</time>
      </trkpt>
      <trkpt lat="47.26153" lon="-1.75701">
        <ele>16</ele>
        <time>2013-09-01T07:56:27Z</time>
      </trkpt>
      <trkpt lat="47.26159" lon="-1.7568">
        <ele>14.8</ele>
        <time>2013-09-01T07:56:31Z</time>
      </trkpt>
      <trkpt lat="47.26165" lon="-1.75657">
        <ele>15</ele>
        <time>2013-09-01T07:56:35Z</time>
      </trkpt>
      <trkpt lat="47.26169" lon="-1.75636">
        <ele>14.6</ele>
        <time>2013-09-01T07:56:39Z</time>
      </trkpt>
      <trkpt lat="47.26172" lon="-1.75615">
        <ele>15.3</ele>
        <time>2013-09-01T07:56:43Z</time>
      </trkpt>
      <trkpt lat="47.26175" lon="-1.75594">
        <ele>15.9</ele>
        <time>2013-09-01T07:56:47Z</time>
      </trkpt>
      <trkpt lat="47.26179" lon="-1.75569">
        <ele>17.6</ele>
        <time>2013-09-01T07:56:51Z</time>
      </trkpt>
      <trkpt lat="47.26181" lon="-1.75553">
        <ele>17.4</ele>
        <time>2013-09-01T07:56:55Z</time>
      </trkpt>
      <trkpt lat="47.26185" lon="-1.75528">
        <ele>17.6</ele>
        <time>2013-09-01T07:56:59Z</time>
      </trkpt>
      <trkpt lat="47.26188" lon="-1.75512">
        <ele>20.3</ele>
        <time>2013-09-01T07:57:03Z</time>
      </trkpt>
      <trkpt lat="47.26189" lon="-1.75494">
        <ele>30</ele>
        <time>2013-09-01T07:57:07Z</time>
      </trkpt>
      <trkpt lat="47.26189" lon="-1.75479">
        <ele>29.1</ele>
        <time>2013-09-01T07:57:11Z</time>
      </trkpt>
      <trkpt lat="47.26194" lon="-1.75463">
        <ele>26.6</ele>
        <time>2013-09-01T07:57:15Z</time>
      </trkpt>
      <trkpt lat="47.26201" lon="-1.75447">
        <ele>24.9</ele>
        <time>2013-09-01T07:57:19Z</time>
      </trkpt>
      <trkpt lat="47.26212" lon="-1.7543">
        <ele>21.9</ele>
        <time>2013-09-01T07:57:23Z</time>
      </trkpt>
      <trkpt lat="47.26222" lon="-1.7541">
        <ele>21.4</ele>
        <time>2013-09-01T07:57:27Z</time>
      </trkpt>
      <trkpt lat="47.2623" lon="-1.75391">
        <ele>21.5</ele>
        <time>2013-09-01T07:57:31Z</time>
      </trkpt>
      <trkpt lat="47.26234" lon="-1.75375">
        <ele>21.7</ele>
        <time>2013-09-01T07:57:35Z</time>
      </trkpt>
      <trkpt lat="47.26242" lon="-1.75364">
        <ele>21.6</ele>
        <time>2013-09-01T07:57:39Z</time>
      </trkpt>
      <trkpt lat="47.26251" lon="-1.75352">
        <ele>22.5</ele>
        <time>2013-09-01T07:57:43Z</time>
      </trkpt>
      <trkpt lat="47.26254" lon="-1.75339">
        <ele>24.7</ele>
        <time>2013-09-01T07:57:47Z</time>
      </trkpt>
      <trkpt lat="47.26259" lon="-1.75328">
        <ele>23.2</ele>
        <time>2013-09-01T07:57:51Z</time>
      </trkpt>
      <trkpt lat="47.26266" lon="-1.75317">
        <ele>21.7</ele>
        <time>2013-09-01T07:57:55Z</time>
      </trkpt>
      <trkpt lat="47.26276" lon="-1.75305">
        <ele>19.7</ele>
        <time>2013-09-01T07:57:59Z</time>
      </trkpt>
      <trkpt lat="47.26289" lon="-1.75291">
        <ele>19.5</ele>
        <time>2013-09-01T07:58:03Z</time>
      </trkpt>
      <trkpt lat="47.26301" lon="-1.75279">
        <ele>17</ele>
        <time>2013-09-01T07:58:07Z</time>
      </trkpt>
      <trkpt lat="47.26319" lon="-1.75265">
        <ele>13.1</ele>
        <time>2013-09-01T07:58:11Z</time>
      </trkpt>
      <trkpt lat="47.26332" lon="-1.75251">
        <ele>13.5</ele>
        <time>2013-09-01T07:58:15Z</time>
      </trkpt>
      <trkpt lat="47.26342" lon="-1.75235">
        <ele>16.1</ele>
        <time>2013-09-01T07:58:19Z</time>
      </trkpt>
      <trkpt lat="47.26353" lon="-1.75216">
        <ele>15.6</ele>
        <time>2013-09-01T07:58:23Z</time>
      </trkpt>
      <trkpt lat="47.26364" lon="-1.75201">
        <ele>14.6</ele>
        <time>2013-09-01T07:58:27Z</time>
      </trkpt>
      <trkpt lat="47.26377" lon="-1.75191">
        <ele>15.4</ele>
        <time>2013-09-01T07:58:31Z</time>
      </trkpt>
      <trkpt lat="47.26385" lon="-1.7518">
        <ele>15.3</ele>
        <time>2013-09-01T07:58:35Z</time>
      </trkpt>
      <trkpt lat="47.26394" lon="-1.75169">
        <ele>13.1</ele>
        <time>2013-09-01T07:58:39Z</time>
      </trkpt>
      <trkpt lat="47.26405" lon="-1.75156">
        <ele>9.9</ele>
        <time>2013-09-01T07:58:43Z</time>
      </trkpt>
      <trkpt lat="47.26416" lon="-1.75137">
        <ele>15.7</ele>
        <time>2013-09-01T07:58:47Z</time>
      </trkpt>
      <trkpt lat="47.26422" lon="-1.75118">
        <ele>17</ele>
        <time>2013-09-01T07:58:51Z</time>
      </trkpt>
      <trkpt lat="47.26426" lon="-1.75102">
        <ele>19.2</ele>
        <time>2013-09-01T07:58:55Z</time>
      </trkpt>
      <trkpt lat="47.26431" lon="-1.75085">
        <ele>24.5</ele>
        <time>2013-09-01T07:58:59Z</time>
      </trkpt>
      <trkpt lat="47.26436" lon="-1.75068">
        <ele>23.5</ele>
        <time>2013-09-01T07:59:03Z</time>
      </trkpt>
      <trkpt lat="47.26439" lon="-1.75054">
        <ele>22.1</ele>
        <time>2013-09-01T07:59:07Z</time>
      </trkpt>
      <trkpt lat="47.26444" lon="-1.75038">
        <ele>20.5</ele>
        <time>2013-09-01T07:59:11Z</time>
      </trkpt>
      <trkpt lat="47.26458" lon="-1.75019">
        <ele>21.4</ele>
        <time>2013-09-01T07:59:15Z</time>
      </trkpt>
      <trkpt lat="47.2647" lon="-1.75002">
        <ele>22.8</ele>
        <time>2013-09-01T07:59:19Z</time>
      </trkpt>
      <trkpt lat="47.26478" lon="-1.74986">
        <ele>22.2</ele>
        <time>2013-09-01T07:59:23Z</time>
      </trkpt>
      <trkpt lat="47.26487" lon="-1.7497">
        <ele>21.4</ele>
        <time>2013-09-01T07:59:27Z</time>
      </trkpt>
      <trkpt lat="47.26498" lon="-1.74953">
        <ele>21.6</ele>
        <time>2013-09-01T07:59:31Z</time>
      </trkpt>
      <trkpt lat="47.26509" lon="-1.74938">
        <ele>22.8</ele>
        <time>2013-09-01T07:59:35Z</time>
      </trkpt>
      <trkpt lat="47.2652" lon="-1.74925">
        <ele>22.5</ele>
        <time>2013-09-01T07:59:39Z</time>
      </trkpt>
      <trkpt lat="47.26533" lon="-1.74912">
        <ele>23.7</ele>
        <time>2013-09-01T07:59:43Z</time>
      </trkpt>
      <trkpt lat="47.26542" lon="-1.74903">
        <ele>26.7</ele>
        <time>2013-09-01T07:59:47Z</time>
      </trkpt>
      <trkpt lat="47.26551" lon="-1.74898">
        <ele>25.8</ele>
        <time>2013-09-01T07:59:51Z</time>
      </trkpt>
      <trkpt lat="47.26558" lon="-1.74889">
        <ele>33.8</ele>
        <time>2013-09-01T08:00:19Z</time>
      </trkpt>
      <trkpt lat="47.26544" lon="-1.74866">
        <ele>36.3</ele>
        <time>2013-09-01T08:01:38Z</time>
      </trkpt>
      <trkpt lat="47.26536" lon="-1.74853">
        <ele>36.3</ele>
        <time>2013-09-01T08:01:42Z</time>
      </trkpt>
      <trkpt lat="47.26527" lon="-1.74841">
        <ele>36.9</ele>
        <time>2013-09-01T08:01:46Z</time>
      </trkpt>
      <trkpt lat="47.26517" lon="-1.74825">
        <ele>39.3</ele>
        <time>2013-09-01T08:01:50Z</time>
      </trkpt>
      <trkpt lat="47.26509" lon="-1.74808">
        <ele>38.1</ele>
        <time>2013-09-01T08:01:54Z</time>
      </trkpt>
      <trkpt lat="47.26505" lon="-1.7479">
        <ele>38.7</ele>
        <time>2013-09-01T08:01:58Z</time>
      </trkpt>
      <trkpt lat="47.26517" lon="-1.74779">
        <ele>39.4</ele>
        <time>2013-09-01T08:07:35Z</time>
      </trkpt>
      <trkpt lat="47.26526" lon="-1.74775">
        <ele>40.3</ele>
        <time>2013-09-01T08:07:39Z</time>
      </trkpt>
      <trkpt lat="47.26541" lon="-1.74766">
        <ele>42.4</ele>
        <time>2013-09-01T08:07:47Z</time>
      </trkpt>
      <trkpt lat="47.26551" lon="-1.74759">
        <ele>43.6</ele>
        <time>2013-09-01T08:07:51Z</time>
      </trkpt>
      <trkpt lat="47.26561" lon="-1.74751">
        <ele>44.7</ele>
        <time>2013-09-01T08:07:55Z</time>
      </trkpt>
      <trkpt lat="47.26578" lon="-1.74738">
        <ele>47</ele>
        <time>2013-09-01T08:08:03Z</time>
      </trkpt>
      <trkpt lat="47.26586" lon="-1.74732">
        <ele>47</ele>
        <time>2013-09-01T08:08:07Z</time>
      </trkpt>
      <trkpt lat="47.26597" lon="-1.74724">
        <ele>46.3</ele>
        <time>2013-09-01T08:08:11Z</time>
      </trkpt>
      <trkpt lat="47.26608" lon="-1.74717">
        <ele>46.6</ele>
        <time>2013-09-01T08:08:15Z</time>
      </trkpt>
      <trkpt lat="47.26617" lon="-1.74709">
        <ele>45.6</ele>
        <time>2013-09-01T08:08:19Z</time>
      </trkpt>
      <trkpt lat="47.26627" lon="-1.74701">
        <ele>46.1</ele>
        <time>2013-09-01T08:08:23Z</time>
      </trkpt>
      <trkpt lat="47.26636" lon="-1.74695">
        <ele>46.6</ele>
        <time>2013-09-01T08:08:27Z</time>
      </trkpt>
      <trkpt lat="47.26644" lon="-1.74687">
        <ele>47</ele>
        <time>2013-09-01T08:08:31Z</time>
      </trkpt>
      <trkpt lat="47.26653" lon="-1.74679">
        <ele>47.8</ele>
        <time>2013-09-01T08:08:35Z</time>
      </trkpt>
      <trkpt lat="47.26663" lon="-1.74673">
        <ele>47.5</ele>
        <time>2013-09-01T08:08:39Z</time>
      </trkpt>
      <trkpt lat="47.26677" lon="-1.74661">
        <ele>46.8</ele>
        <time>2013-09-01T08:08:47Z</time>
      </trkpt>
      <trkpt lat="47.26687" lon="-1.74654">
        <ele>47.6</ele>
        <time>2013-09-01T08:08:51Z</time>
      </trkpt>
      <trkpt lat="47.26696" lon="-1.74647">
        <ele>50.3</ele>
        <time>2013-09-01T08:08:55Z</time>
      </trkpt>
      <trkpt lat="47.26706" lon="-1.74641">
        <ele>51.3</ele>
        <time>2013-09-01T08:08:59Z</time>
      </trkpt>
      <trkpt lat="47.26716" lon="-1.74635">
        <ele>52.1</ele>
        <time>2013-09-01T08:09:03Z</time>
      </trkpt>
      <trkpt lat="47.26725" lon="-1.74628">
        <ele>53.5</ele>
        <time>2013-09-01T08:09:07Z</time>
      </trkpt>
      <trkpt lat="47.26737" lon="-1.74618">
        <ele>53.5</ele>
        <time>2013-09-01T08:09:15Z</time>
      </trkpt>
      <trkpt lat="47.26749" lon="-1.74611">
        <ele>54.5</ele>
        <time>2013-09-01T08:09:22Z</time>
      </trkpt>
      <trkpt lat="47.26762" lon="-1.74599">
        <ele>54.8</ele>
        <time>2013-09-01T08:09:30Z</time>
      </trkpt>
      <trkpt lat="47.26772" lon="-1.74584">
        <ele>55.3</ele>
        <time>2013-09-01T08:09:38Z</time>
      </trkpt>
      <trkpt lat="47.26784" lon="-1.74571">
        <ele>56.4</ele>
        <time>2013-09-01T08:09:46Z</time>
      </trkpt>
      <trkpt lat="47.26792" lon="-1.7456">
        <ele>56.3</ele>
        <time>2013-09-01T08:09:54Z</time>
      </trkpt>
      <trkpt lat="47.26802" lon="-1.74544">
        <ele>55.8</ele>
        <time>2013-09-01T08:10:02Z</time>
      </trkpt>
      <trkpt lat="47.26813" lon="-1.74525">
        <ele>57</ele>
        <time>2013-09-01T08:10:10Z</time>
      </trkpt>
      <trkpt lat="47.26826" lon="-1.74511">
        <ele>60.2</ele>
        <time>2013-09-01T08:10:18Z</time>
      </trkpt>
      <trkpt lat="47.26839" lon="-1.74502">
        <ele>61.4</ele>
        <time>2013-09-01T08:10:26Z</time>
      </trkpt>
      <trkpt lat="47.26848" lon="-1.74498">
        <ele>63.4</ele>
        <time>2013-09-01T08:10:30Z</time>
      </trkpt>
      <trkpt lat="47.26862" lon="-1.74492">
        <ele>67.5</ele>
        <time>2013-09-01T08:10:38Z</time>
      </trkpt>
      <trkpt lat="47.26871" lon="-1.74479">
        <ele>67.3</ele>
        <time>2013-09-01T08:10:46Z</time>
      </trkpt>
      <trkpt lat="47.26874" lon="-1.74455">
        <ele>66.5</ele>
        <time>2013-09-01T08:10:54Z</time>
      </trkpt>
      <trkpt lat="47.26876" lon="-1.74441">
        <ele>66.4</ele>
        <time>2013-09-01T08:10:58Z</time>
      </trkpt>
      <trkpt lat="47.26878" lon="-1.74426">
        <ele>65.4</ele>
        <time>2013-09-01T08:11:02Z</time>
      </trkpt>
      <trkpt lat="47.26879" lon="-1.7441">
        <ele>65.6</ele>
        <time>2013-09-01T08:11:06Z</time>
      </trkpt>
      <trkpt lat="47.26878" lon="-1.74394">
        <ele>65.7</ele>
        <time>2013-09-01T08:11:10Z</time>
      </trkpt>
      <trkpt lat="47.26877" lon="-1.74379">
        <ele>65.7</ele>
        <time>2013-09-01T08:11:14Z</time>
      </trkpt>
      <trkpt lat="47.26879" lon="-1.74363">
        <ele>66.7</ele>
        <time>2013-09-01T08:11:18Z</time>
      </trkpt>
      <trkpt lat="47.26883" lon="-1.74346">
        <ele>66.3</ele>
        <time>2013-09-01T08:11:22Z</time>
      </trkpt>
      <trkpt lat="47.26885" lon="-1.74333">
        <ele>66.9</ele>
        <time>2013-09-01T08:11:26Z</time>
      </trkpt>
      <trkpt lat="47.26886" lon="-1.74319">
        <ele>64.2</ele>
        <time>2013-09-01T08:12:23Z</time>
      </trkpt>
      <trkpt lat="47.26891" lon="-1.74308">
        <ele>68.9</ele>
        <time>2013-09-01T08:14:03Z</time>
      </trkpt>
      <trkpt lat="47.2689" lon="-1.74316">
        <ele>67.2</ele>
        <time>2013-09-01T08:14:28Z</time>
      </trkpt>
      <trkpt lat="47.2689" lon="-1.74316">
        <ele>67.7</ele>
        <time>2013-09-01T08:16:42Z</time>
      </trkpt>
      <trkpt lat="47.26889" lon="-1.74318">
        <ele>70</ele>
        <time>2013-09-01T08:17:14Z</time>
      </trkpt>
      <trkpt lat="47.26899" lon="-1.74305">
        <ele>66.7</ele>
        <time>2013-09-01T08:17:22Z</time>
      </trkpt>
      <trkpt lat="47.26907" lon="-1.74292">
        <ele>69.7</ele>
        <time>2013-09-01T08:17:26Z</time>
      </trkpt>
      <trkpt lat="47.26902" lon="-1.74261">
        <ele>68.8</ele>
        <time>2013-09-01T08:17:34Z</time>
      </trkpt>
      <trkpt lat="47.26894" lon="-1.74244">
        <ele>67.4</ele>
        <time>2013-09-01T08:17:38Z</time>
      </trkpt>
      <trkpt lat="47.26884" lon="-1.74223">
        <ele>67.2</ele>
        <time>2013-09-01T08:17:42Z</time>
      </trkpt>
      <trkpt lat="47.26876" lon="-1.74202">
        <ele>66.2</ele>
        <time>2013-09-01T08:17:46Z</time>
      </trkpt>
      <trkpt lat="47.26871" lon="-1.74184">
        <ele>65.9</ele>
        <time>2013-09-01T08:17:50Z</time>
      </trkpt>
      <trkpt lat="47.26866" lon="-1.74165">
        <ele>65.7</ele>
        <time>2013-09-01T08:17:54Z</time>
      </trkpt>
      <trkpt lat="47.26861" lon="-1.74147">
        <ele>66</ele>
        <time>2013-09-01T08:17:58Z</time>
      </trkpt>
      <trkpt lat="47.26857" lon="-1.74125">
        <ele>64</ele>
        <time>2013-09-01T08:18:02Z</time>
      </trkpt>
      <trkpt lat="47.26858" lon="-1.74107">
        <ele>64.3</ele>
        <time>2013-09-01T08:18:06Z</time>
      </trkpt>
      <trkpt lat="47.26862" lon="-1.74089">
        <ele>63.7</ele>
        <time>2013-09-01T08:18:10Z</time>
      </trkpt>
      <trkpt lat="47.26863" lon="-1.74066">
        <ele>63.7</ele>
        <time>2013-09-01T08:18:14Z</time>
      </trkpt>
      <trkpt lat="47.2686" lon="-1.74039">
        <ele>64.5</ele>
        <time>2013-09-01T08:18:18Z</time>
      </trkpt>
      <trkpt lat="47.26855" lon="-1.74018">
        <ele>60.5</ele>
        <time>2013-09-01T08:18:22Z</time>
      </trkpt>
      <trkpt lat="47.2685" lon="-1.74">
        <ele>64.5</ele>
        <time>2013-09-01T08:18:26Z</time>
      </trkpt>
      <trkpt lat="47.2685" lon="-1.7398">
        <ele>64.8</ele>
        <time>2013-09-01T08:18:30Z</time>
      </trkpt>
      <trkpt lat="47.2685" lon="-1.73961">
        <ele>62.9</ele>
        <time>2013-09-01T08:18:34Z</time>
      </trkpt>
      <trkpt lat="47.26847" lon="-1.73945">
        <ele>62.2</ele>
        <time>2013-09-01T08:18:38Z</time>
      </trkpt>
      <trkpt lat="47.26844" lon="-1.73929">
        <ele>62.7</ele>
        <time>2013-09-01T08:18:42Z</time>
      </trkpt>
      <trkpt lat="47.26841" lon="-1.73915">
        <ele>63.5</ele>
        <time>2013-09-01T08:18:46Z</time>
      </trkpt>
      <trkpt lat="47.26835" lon="-1.73889">
        <ele>65.6</ele>
        <time>2013-09-01T08:18:50Z</time>
      </trkpt>
      <trkpt lat="47.26828" lon="-1.73867">
        <ele>68.9</ele>
        <time>2013-09-01T08:18:54Z</time>
      </trkpt>
      <trkpt lat="47.26818" lon="-1.73844">
        <ele>68.1</ele>
        <time>2013-09-01T08:18:58Z</time>
      </trkpt>
      <trkpt lat="47.2681" lon="-1.73823">
        <ele>69.4</ele>
        <time>2013-09-01T08:19:03Z</time>
      </trkpt>
      <trkpt lat="47.2681" lon="-1.73806">
        <ele>69.8</ele>
        <time>2013-09-01T08:19:07Z</time>
      </trkpt>
      <trkpt lat="47.26808" lon="-1.73782">
        <ele>68</ele>
        <time>2013-09-01T08:19:11Z</time>
      </trkpt>
      <trkpt lat="47.26803" lon="-1.73762">
        <ele>63.5</ele>
        <time>2013-09-01T08:19:15Z</time>
      </trkpt>
      <trkpt lat="47.26797" lon="-1.73747">
        <ele>64.6</ele>
        <time>2013-09-01T08:19:19Z</time>
      </trkpt>
      <trkpt lat="47.26791" lon="-1.73734">
        <ele>64.6</ele>
        <time>2013-09-01T08:19:23Z</time>
      </trkpt>
      <trkpt lat="47.26779" lon="-1.73726">
        <ele>65.8</ele>
        <time>2013-09-01T08:19:27Z</time>
      </trkpt>
      <trkpt lat="47.26766" lon="-1.73718">
        <ele>62.8</ele>
        <time>2013-09-01T08:19:31Z</time>
      </trkpt>
      <trkpt lat="47.26757" lon="-1.73708">
        <ele>62.2</ele>
        <time>2013-09-01T08:19:35Z</time>
      </trkpt>
      <trkpt lat="47.26747" lon="-1.73693">
        <ele>60.6</ele>
        <time>2013-09-01T08:19:39Z</time>
      </trkpt>
      <trkpt lat="47.26738" lon="-1.7368">
        <ele>59.8</ele>
        <time>2013-09-01T08:19:42Z</time>
      </trkpt>
      <trkpt lat="47.2673" lon="-1.7366">
        <ele>63</ele>
        <time>2013-09-01T08:19:46Z</time>
      </trkpt>
      <trkpt lat="47.26722" lon="-1.73643">
        <ele>65.2</ele>
        <time>2013-09-01T08:19:50Z</time>
      </trkpt>
      <trkpt lat="47.26712" lon="-1.73628">
        <ele>65.5</ele>
        <time>2013-09-01T08:19:54Z</time>
      </trkpt>
      <trkpt lat="47.26705" lon="-1.73616">
        <ele>66.1</ele>
        <time>2013-09-01T08:19:58Z</time>
      </trkpt>
      <trkpt lat="47.26696" lon="-1.73602">
        <ele>67</ele>
        <time>2013-09-01T08:20:02Z</time>
      </trkpt>
      <trkpt lat="47.26684" lon="-1.73584">
        <ele>69.2</ele>
        <time>2013-09-01T08:20:06Z</time>
      </trkpt>
      <trkpt lat="47.26668" lon="-1.73573">
        <ele>69.6</ele>
        <time>2013-09-01T08:20:10Z</time>
      </trkpt>
      <trkpt lat="47.26653" lon="-1.73572">
        <ele>69</ele>
        <time>2013-09-01T08:20:14Z</time>
      </trkpt>
      <trkpt lat="47.26638" lon="-1.73576">
        <ele>68.4</ele>
        <time>2013-09-01T08:20:18Z</time>
      </trkpt>
      <trkpt lat="47.26633" lon="-1.73565">
        <ele>70.7</ele>
        <time>2013-09-01T08:20:22Z</time>
      </trkpt>
      <trkpt lat="47.26636" lon="-1.7355">
        <ele>67.7</ele>
        <time>2013-09-01T08:20:26Z</time>
      </trkpt>
      <trkpt lat="47.26641" lon="-1.73535">
        <ele>67.2</ele>
        <time>2013-09-01T08:20:30Z</time>
      </trkpt>
      <trkpt lat="47.26644" lon="-1.73519">
        <ele>67.2</ele>
        <time>2013-09-01T08:20:34Z</time>
      </trkpt>
      <trkpt lat="47.26648" lon="-1.73502">
        <ele>66.7</ele>
        <time>2013-09-01T08:20:38Z</time>
      </trkpt>
      <trkpt lat="47.26653" lon="-1.73485">
        <ele>66.7</ele>
        <time>2013-09-01T08:20:42Z</time>
      </trkpt>
      <trkpt lat="47.26658" lon="-1.73467">
        <ele>65.4</ele>
        <time>2013-09-01T08:20:46Z</time>
      </trkpt>
      <trkpt lat="47.26656" lon="-1.7345">
        <ele>65.2</ele>
        <time>2013-09-01T08:20:50Z</time>
      </trkpt>
      <trkpt lat="47.26649" lon="-1.73429">
        <ele>67.8</ele>
        <time>2013-09-01T08:20:54Z</time>
      </trkpt>
      <trkpt lat="47.26644" lon="-1.7341">
        <ele>69.9</ele>
        <time>2013-09-01T08:20:58Z</time>
      </trkpt>
      <trkpt lat="47.26639" lon="-1.73389">
        <ele>76.5</ele>
        <time>2013-09-01T08:21:02Z</time>
      </trkpt>
      <trkpt lat="47.26632" lon="-1.73366">
        <ele>76</ele>
        <time>2013-09-01T08:21:06Z</time>
      </trkpt>
      <trkpt lat="47.26622" lon="-1.73343">
        <ele>76.2</ele>
        <time>2013-09-01T08:21:10Z</time>
      </trkpt>
      <trkpt lat="47.26617" lon="-1.73326">
        <ele>78.9</ele>
        <time>2013-09-01T08:21:14Z</time>
      </trkpt>
      <trkpt lat="47.2661" lon="-1.7331">
        <ele>81.7</ele>
        <time>2013-09-01T08:21:18Z</time>
      </trkpt>
      <trkpt lat="47.26603" lon="-1.73293">
        <ele>80.3</ele>
        <time>2013-09-01T08:21:22Z</time>
      </trkpt>
      <trkpt lat="47.26595" lon="-1.73278">
        <ele>78.6</ele>
        <time>2013-09-01T08:21:26Z</time>
      </trkpt>
      <trkpt lat="47.26584" lon="-1.73265">
        <ele>78.6</ele>
        <time>2013-09-01T08:21:30Z</time>
      </trkpt>
      <trkpt lat="47.26572" lon="-1.7325">
        <ele>77</ele>
        <time>2013-09-01T08:21:34Z</time>
      </trkpt>
      <trkpt lat="47.26564" lon="-1.73236">
        <ele>75.3</ele>
        <time>2013-09-01T08:21:38Z</time>
      </trkpt>
      <trkpt lat="47.26556" lon="-1.7323">
        <ele>77.5</ele>
        <time>2013-09-01T08:21:42Z</time>
      </trkpt>
      <trkpt lat="47.26542" lon="-1.73227">
        <ele>76.6</ele>
        <time>2013-09-01T08:21:46Z</time>
      </trkpt>
      <trkpt lat="47.26531" lon="-1.73215">
        <ele>73.5</ele>
        <time>2013-09-01T08:21:50Z</time>
      </trkpt>
      <trkpt lat="47.26521" lon="-1.73203">
        <ele>73.6</ele>
        <time>2013-09-01T08:21:54Z</time>
      </trkpt>
      <trkpt lat="47.26508" lon="-1.73203">
        <ele>73.9</ele>
        <time>2013-09-01T08:21:58Z</time>
      </trkpt>
      <trkpt lat="47.26494" lon="-1.73205">
        <ele>74.5</ele>
        <time>2013-09-01T08:22:02Z</time>
      </trkpt>
      <trkpt lat="47.26483" lon="-1.73203">
        <ele>73.1</ele>
        <time>2013-09-01T08:22:06Z</time>
      </trkpt>
      <trkpt lat="47.26475" lon="-1.73194">
        <ele>71.7</ele>
        <time>2013-09-01T08:22:10Z</time>
      </trkpt>
      <trkpt lat="47.26474" lon="-1.73179">
        <ele>71.2</ele>
        <time>2013-09-01T08:22:14Z</time>
      </trkpt>
      <trkpt lat="47.26471" lon="-1.73162">
        <ele>72.2</ele>
        <time>2013-09-01T08:22:18Z</time>
      </trkpt>
      <trkpt lat="47.26469" lon="-1.7314">
        <ele>73.2</ele>
        <time>2013-09-01T08:22:22Z</time>
      </trkpt>
      <trkpt lat="47.26463" lon="-1.73117">
        <ele>71.4</ele>
        <time>2013-09-01T08:22:26Z</time>
      </trkpt>
      <trkpt lat="47.26458" lon="-1.73096">
        <ele>70.3</ele>
        <time>2013-09-01T08:22:30Z</time>
      </trkpt>
      <trkpt lat="47.26452" lon="-1.73074">
        <ele>71.9</ele>
        <time>2013-09-01T08:22:34Z</time>
      </trkpt>
      <trkpt lat="47.26444" lon="-1.73051">
        <ele>72.5</ele>
        <time>2013-09-01T08:22:38Z</time>
      </trkpt>
      <trkpt lat="47.26434" lon="-1.73031">
        <ele>72.3</ele>
        <time>2013-09-01T08:22:42Z</time>
      </trkpt>
      <trkpt lat="47.26424" lon="-1.73011">
        <ele>72</ele>
        <time>2013-09-01T08:22:46Z</time>
      </trkpt>
      <trkpt lat="47.26415" lon="-1.72991">
        <ele>71.2</ele>
        <time>2013-09-01T08:22:50Z</time>
      </trkpt>
      <trkpt lat="47.26411" lon="-1.72977">
        <ele>72.6</ele>
        <time>2013-09-01T08:22:54Z</time>
      </trkpt>
      <trkpt lat="47.26411" lon="-1.72958">
        <ele>70</ele>
        <time>2013-09-01T08:22:58Z</time>
      </trkpt>
      <trkpt lat="47.26425" lon="-1.7294">
        <ele>73.1</ele>
        <time>2013-09-01T08:23:02Z</time>
      </trkpt>
      <trkpt lat="47.26438" lon="-1.7293">
        <ele>73.3</ele>
        <time>2013-09-01T08:23:06Z</time>
      </trkpt>
      <trkpt lat="47.2645" lon="-1.72916">
        <ele>74.2</ele>
        <time>2013-09-01T08:23:10Z</time>
      </trkpt>
      <trkpt lat="47.26462" lon="-1.72901">
        <ele>75.9</ele>
        <time>2013-09-01T08:23:14Z</time>
      </trkpt>
      <trkpt lat="47.26472" lon="-1.72887">
        <ele>75.8</ele>
        <time>2013-09-01T08:23:18Z</time>
      </trkpt>
      <trkpt lat="47.26479" lon="-1.72877">
        <ele>74.5</ele>
        <time>2013-09-01T08:23:22Z</time>
      </trkpt>
      <trkpt lat="47.2649" lon="-1.72865">
        <ele>74.8</ele>
        <time>2013-09-01T08:23:26Z</time>
      </trkpt>
      <trkpt lat="47.26502" lon="-1.72852">
        <ele>71.7</ele>
        <time>2013-09-01T08:23:30Z</time>
      </trkpt>
      <trkpt lat="47.26513" lon="-1.72841">
        <ele>71.1</ele>
        <time>2013-09-01T08:23:34Z</time>
      </trkpt>
      <trkpt lat="47.26525" lon="-1.72828">
        <ele>74.3</ele>
        <time>2013-09-01T08:23:38Z</time>
      </trkpt>
      <trkpt lat="47.26537" lon="-1.72814">
        <ele>76.4</ele>
        <time>2013-09-01T08:23:42Z</time>
      </trkpt>
      <trkpt lat="47.26549" lon="-1.72801">
        <ele>77.5</ele>
        <time>2013-09-01T08:23:46Z</time>
      </trkpt>
      <trkpt lat="47.2656" lon="-1.72789">
        <ele>76.7</ele>
        <time>2013-09-01T08:23:50Z</time>
      </trkpt>
      <trkpt lat="47.26557" lon="-1.72772">
        <ele>77.5</ele>
        <time>2013-09-01T08:23:54Z</time>
      </trkpt>
      <trkpt lat="47.26551" lon="-1.72752">
        <ele>76.5</ele>
        <time>2013-09-01T08:23:58Z</time>
      </trkpt>
      <trkpt lat="47.26544" lon="-1.72729">
        <ele>77.5</ele>
        <time>2013-09-01T08:24:02Z</time>
      </trkpt>
      <trkpt lat="47.26539" lon="-1.72704">
        <ele>79.2</ele>
        <time>2013-09-01T08:24:06Z</time>
      </trkpt>
      <trkpt lat="47.26534" lon="-1.7268">
        <ele>79.3</ele>
        <time>2013-09-01T08:24:10Z</time>
      </trkpt>
      <trkpt lat="47.26528" lon="-1.72656">
        <ele>79.4</ele>
        <time>2013-09-01T08:24:14Z</time>
      </trkpt>
      <trkpt lat="47.26517" lon="-1.72632">
        <ele>78</ele>
        <time>2013-09-01T08:24:18Z</time>
      </trkpt>
      <trkpt lat="47.26507" lon="-1.72614">
        <ele>78.4</ele>
        <time>2013-09-01T08:24:22Z</time>
      </trkpt>
      <trkpt lat="47.26495" lon="-1.72595">
        <ele>79.9</ele>
        <time>2013-09-01T08:24:26Z</time>
      </trkpt>
      <trkpt lat="47.26484" lon="-1.7257">
        <ele>80.8</ele>
        <time>2013-09-01T08:24:30Z</time>
      </trkpt>
      <trkpt lat="47.26475" lon="-1.7254">
        <ele>81.1</ele>
        <time>2013-09-01T08:24:34Z</time>
      </trkpt>
      <trkpt lat="47.26461" lon="-1.72517">
        <ele>80.9</ele>
        <time>2013-09-01T08:24:38Z</time>
      </trkpt>
      <trkpt lat="47.26448" lon="-1.72492">
        <ele>80</ele>
        <time>2013-09-01T08:24:42Z</time>
      </trkpt>
      <trkpt lat="47.26436" lon="-1.72472">
        <ele>80</ele>
        <time>2013-09-01T08:24:46Z</time>
      </trkpt>
      <trkpt lat="47.26438" lon="-1.72453">
        <ele>79.5</ele>
        <time>2013-09-01T08:24:50Z</time>
      </trkpt>
      <trkpt lat="47.2645" lon="-1.72434">
        <ele>79.9</ele>
        <time>2013-09-01T08:24:54Z</time>
      </trkpt>
      <trkpt lat="47.26455" lon="-1.72417">
        <ele>78.9</ele>
        <time>2013-09-01T08:24:58Z</time>
      </trkpt>
      <trkpt lat="47.2645" lon="-1.72395">
        <ele>79.4</ele>
        <time>2013-09-01T08:25:02Z</time>
      </trkpt>
      <trkpt lat="47.26443" lon="-1.72371">
        <ele>78.8</ele>
        <time>2013-09-01T08:25:06Z</time>
      </trkpt>
      <trkpt lat="47.26438" lon="-1.7235">
        <ele>76.2</ele>
        <time>2013-09-01T08:25:10Z</time>
      </trkpt>
      <trkpt lat="47.26437" lon="-1.72331">
        <ele>77.5</ele>
        <time>2013-09-01T08:25:14Z</time>
      </trkpt>
      <trkpt lat="47.26439" lon="-1.72307">
        <ele>76.8</ele>
        <time>2013-09-01T08:25:18Z</time>
      </trkpt>
      <trkpt lat="47.26441" lon="-1.72284">
        <ele>76.9</ele>
        <time>2013-09-01T08:25:22Z</time>
      </trkpt>
      <trkpt lat="47.26434" lon="-1.72261">
        <ele>72.2</ele>
        <time>2013-09-01T08:25:26Z</time>
      </trkpt>
      <trkpt lat="47.26421" lon="-1.72244">
        <ele>72.6</ele>
        <time>2013-09-01T08:25:30Z</time>
      </trkpt>
      <trkpt lat="47.26409" lon="-1.72228">
        <ele>74.3</ele>
        <time>2013-09-01T08:25:34Z</time>
      </trkpt>
      <trkpt lat="47.26396" lon="-1.72214">
        <ele>75.7</ele>
        <time>2013-09-01T08:25:38Z</time>
      </trkpt>
      <trkpt lat="47.26383" lon="-1.72204">
        <ele>78.2</ele>
        <time>2013-09-01T08:25:42Z</time>
      </trkpt>
      <trkpt lat="47.2637" lon="-1.72197">
        <ele>77.2</ele>
        <time>2013-09-01T08:25:46Z</time>
      </trkpt>
      <trkpt lat="47.26359" lon="-1.72187">
        <ele>75.3</ele>
        <time>2013-09-01T08:25:50Z</time>
      </trkpt>
      <trkpt lat="47.26348" lon="-1.72176">
        <ele>73.6</ele>
        <time>2013-09-01T08:25:54Z</time>
      </trkpt>
      <trkpt lat="47.26334" lon="-1.72166">
        <ele>75.2</ele>
        <time>2013-09-01T08:25:58Z</time>
      </trkpt>
      <trkpt lat="47.26319" lon="-1.7216">
        <ele>74.7</ele>
        <time>2013-09-01T08:26:02Z</time>
      </trkpt>
      <trkpt lat="47.26305" lon="-1.72148">
        <ele>74.1</ele>
        <time>2013-09-01T08:26:06Z</time>
      </trkpt>
      <trkpt lat="47.26293" lon="-1.72133">
        <ele>76</ele>
        <time>2013-09-01T08:26:10Z</time>
      </trkpt>
      <trkpt lat="47.26281" lon="-1.72118">
        <ele>80.4</ele>
        <time>2013-09-01T08:26:14Z</time>
      </trkpt>
      <trkpt lat="47.2627" lon="-1.72102">
        <ele>81.4</ele>
        <time>2013-09-01T08:26:18Z</time>
      </trkpt>
      <trkpt lat="47.26262" lon="-1.72087">
        <ele>80.8</ele>
        <time>2013-09-01T08:26:22Z</time>
      </trkpt>
      <trkpt lat="47.26253" lon="-1.72057">
        <ele>80.9</ele>
        <time>2013-09-01T08:26:26Z</time>
      </trkpt>
      <trkpt lat="47.26242" lon="-1.72032">
        <ele>81.4</ele>
        <time>2013-09-01T08:26:30Z</time>
      </trkpt>
      <trkpt lat="47.26239" lon="-1.72008">
        <ele>79.7</ele>
        <time>2013-09-01T08:26:34Z</time>
      </trkpt>
      <trkpt lat="47.26226" lon="-1.71982">
        <ele>77.7</ele>
        <time>2013-09-01T08:26:38Z</time>
      </trkpt>
      <trkpt lat="47.26212" lon="-1.71952">
        <ele>78.8</ele>
        <time>2013-09-01T08:26:42Z</time>
      </trkpt>
      <trkpt lat="47.26202" lon="-1.71927">
        <ele>79.8</ele>
        <time>2013-09-01T08:26:46Z</time>
      </trkpt>
      <trkpt lat="47.26183" lon="-1.71911">
        <ele>77.8</ele>
        <time>2013-09-01T08:26:50Z</time>
      </trkpt>
      <trkpt lat="47.2617" lon="-1.71888">
        <ele>76</ele>
        <time>2013-09-01T08:26:54Z</time>
      </trkpt>
      <trkpt lat="47.26164" lon="-1.7186">
        <ele>77.9</ele>
        <time>2013-09-01T08:26:58Z</time>
      </trkpt>
      <trkpt lat="47.26158" lon="-1.71829">
        <ele>80.9</ele>
        <time>2013-09-01T08:27:02Z</time>
      </trkpt>
      <trkpt lat="47.2615" lon="-1.71806">
        <ele>79.5</ele>
        <time>2013-09-01T08:27:06Z</time>
      </trkpt>
      <trkpt lat="47.26145" lon="-1.71793">
        <ele>81</ele>
        <time>2013-09-01T08:27:10Z</time>
      </trkpt>
      <trkpt lat="47.26154" lon="-1.71779">
        <ele>79.3</ele>
        <time>2013-09-01T08:27:14Z</time>
      </trkpt>
      <trkpt lat="47.26168" lon="-1.71769">
        <ele>77</ele>
        <time>2013-09-01T08:27:18Z</time>
      </trkpt>
      <trkpt lat="47.26168" lon="-1.71745">
        <ele>78.9</ele>
        <time>2013-09-01T08:27:22Z</time>
      </trkpt>
      <trkpt lat="47.26159" lon="-1.71718">
        <ele>81.1</ele>
        <time>2013-09-01T08:27:26Z</time>
      </trkpt>
      <trkpt lat="47.26152" lon="-1.71696">
        <ele>80.4</ele>
        <time>2013-09-01T08:27:30Z</time>
      </trkpt>
      <trkpt lat="47.26142" lon="-1.71674">
        <ele>80.9</ele>
        <time>2013-09-01T08:27:34Z</time>
      </trkpt>
      <trkpt lat="47.26133" lon="-1.71649">
        <ele>80.2</ele>
        <time>2013-09-01T08:27:38Z</time>
      </trkpt>
      <trkpt lat="47.26123" lon="-1.71623">
        <ele>78.2</ele>
        <time>2013-09-01T08:27:42Z</time>
      </trkpt>
      <trkpt lat="47.26122" lon="-1.71593">
        <ele>76.6</ele>
        <time>2013-09-01T08:27:46Z</time>
      </trkpt>
      <trkpt lat="47.26131" lon="-1.71567">
        <ele>76</ele>
        <time>2013-09-01T08:27:50Z</time>
      </trkpt>
      <trkpt lat="47.26146" lon="-1.71548">
        <ele>76.9</ele>
        <time>2013-09-01T08:27:54Z</time>
      </trkpt>
      <trkpt lat="47.26161" lon="-1.71526">
        <ele>76</ele>
        <time>2013-09-01T08:27:58Z</time>
      </trkpt>
      <trkpt lat="47.2618" lon="-1.71505">
        <ele>72.7</ele>
        <time>2013-09-01T08:28:02Z</time>
      </trkpt>
      <trkpt lat="47.26198" lon="-1.71479">
        <ele>71.1</ele>
        <time>2013-09-01T08:28:06Z</time>
      </trkpt>
      <trkpt lat="47.26206" lon="-1.71464">
        <ele>70.7</ele>
        <time>2013-09-01T08:28:10Z</time>
      </trkpt>
      <trkpt lat="47.2624" lon="-1.7128">
        <ele>68.6</ele>
        <time>2013-09-01T08:28:22Z</time>
      </trkpt>
      <trkpt lat="47.2625" lon="-1.71218">
        <ele>67.8</ele>
        <time>2013-09-01T08:28:26Z</time>
      </trkpt>
      <trkpt lat="47.26262" lon="-1.71162">
        <ele>66.1</ele>
        <time>2013-09-01T08:28:30Z</time>
      </trkpt>
      <trkpt lat="47.26272" lon="-1.71109">
        <ele>62.7</ele>
        <time>2013-09-01T08:28:34Z</time>
      </trkpt>
      <trkpt lat="47.26278" lon="-1.71064">
        <ele>61</ele>
        <time>2013-09-01T08:28:38Z</time>
      </trkpt>
      <trkpt lat="47.26285" lon="-1.7102">
        <ele>59.3</ele>
        <time>2013-09-01T08:28:42Z</time>
      </trkpt>
      <trkpt lat="47.26293" lon="-1.70977">
        <ele>60.6</ele>
        <time>2013-09-01T08:28:46Z</time>
      </trkpt>
      <trkpt lat="47.26299" lon="-1.70945">
        <ele>58.3</ele>
        <time>2013-09-01T08:28:50Z</time>
      </trkpt>
      <trkpt lat="47.26304" lon="-1.70911">
        <ele>57.2</ele>
        <time>2013-09-01T08:28:54Z</time>
      </trkpt>
      <trkpt lat="47.26311" lon="-1.7088">
        <ele>57.2</ele>
        <time>2013-09-01T08:28:58Z</time>
      </trkpt>
      <trkpt lat="47.26314" lon="-1.70854">
        <ele>56.3</ele>
        <time>2013-09-01T08:29:02Z</time>
      </trkpt>
      <trkpt lat="47.26318" lon="-1.70826">
        <ele>54.7</ele>
        <time>2013-09-01T08:29:06Z</time>
      </trkpt>
      <trkpt lat="47.26323" lon="-1.70794">
        <ele>55.4</ele>
        <time>2013-09-01T08:29:10Z</time>
      </trkpt>
      <trkpt lat="47.26328" lon="-1.70766">
        <ele>55.4</ele>
        <time>2013-09-01T08:29:14Z</time>
      </trkpt>
      <trkpt lat="47.26325" lon="-1.70729">
        <ele>59.1</ele>
        <time>2013-09-01T08:29:18Z</time>
      </trkpt>
      <trkpt lat="47.26324" lon="-1.70705">
        <ele>60.8</ele>
        <time>2013-09-01T08:29:22Z</time>
      </trkpt>
      <trkpt lat="47.26316" lon="-1.7068">
        <ele>63.5</ele>
        <time>2013-09-01T08:29:26Z</time>
      </trkpt>
      <trkpt lat="47.26312" lon="-1.70658">
        <ele>61.3</ele>
        <time>2013-09-01T08:29:30Z</time>
      </trkpt>
      <trkpt lat="47.26309" lon="-1.70639">
        <ele>61.7</ele>
        <time>2013-09-01T08:29:34Z</time>
      </trkpt>
      <trkpt lat="47.26305" lon="-1.7062">
        <ele>63</ele>
        <time>2013-09-01T08:29:38Z</time>
      </trkpt>
      <trkpt lat="47.26301" lon="-1.70601">
        <ele>62.2</ele>
        <time>2013-09-01T08:29:42Z</time>
      </trkpt>
      <trkpt lat="47.26296" lon="-1.70582">
        <ele>56.2</ele>
        <time>2013-09-01T08:29:46Z</time>
      </trkpt>
      <trkpt lat="47.26293" lon="-1.70565">
        <ele>58.4</ele>
        <time>2013-09-01T08:29:50Z</time>
      </trkpt>
      <trkpt lat="47.26289" lon="-1.70544">
        <ele>58.7</ele>
        <time>2013-09-01T08:29:54Z</time>
      </trkpt>
      <trkpt lat="47.26283" lon="-1.70521">
        <ele>58.1</ele>
        <time>2013-09-01T08:29:58Z</time>
      </trkpt>
      <trkpt lat="47.26277" lon="-1.705">
        <ele>62.3</ele>
        <time>2013-09-01T08:30:02Z</time>
      </trkpt>
      <trkpt lat="47.26266" lon="-1.70482">
        <ele>55.5</ele>
        <time>2013-09-01T08:30:06Z</time>
      </trkpt>
      <trkpt lat="47.26256" lon="-1.70462">
        <ele>57</ele>
        <time>2013-09-01T08:30:10Z</time>
      </trkpt>
      <trkpt lat="47.26246" lon="-1.70444">
        <ele>54.8</ele>
        <time>2013-09-01T08:30:14Z</time>
      </trkpt>
      <trkpt lat="47.26235" lon="-1.70425">
        <ele>56</ele>
        <time>2013-09-01T08:30:18Z</time>
      </trkpt>
      <trkpt lat="47.26227" lon="-1.70407">
        <ele>56.8</ele>
        <time>2013-09-01T08:30:22Z</time>
      </trkpt>
      <trkpt lat="47.26218" lon="-1.70388">
        <ele>59.7</ele>
        <time>2013-09-01T08:30:26Z</time>
      </trkpt>
      <trkpt lat="47.26207" lon="-1.70375">
        <ele>60.4</ele>
        <time>2013-09-01T08:30:30Z</time>
      </trkpt>
      <trkpt lat="47.26196" lon="-1.70381">
        <ele>61.2</ele>
        <time>2013-09-01T08:30:34Z</time>
      </trkpt>
      <trkpt lat="47.26183" lon="-1.70394">
        <ele>60.5</ele>
        <time>2013-09-01T08:30:38Z</time>
      </trkpt>
      <trkpt lat="47.26163" lon="-1.70408">
        <ele>60.5</ele>
        <time>2013-09-01T08:30:42Z</time>
      </trkpt>
      <trkpt lat="47.2614" lon="-1.70427">
        <ele>59.9</ele>
        <time>2013-09-01T08:30:46Z</time>
      </trkpt>
      <trkpt lat="47.26113" lon="-1.7045">
        <ele>59.6</ele>
        <time>2013-09-01T08:30:50Z</time>
      </trkpt>
      <trkpt lat="47.2608" lon="-1.70472">
        <ele>58.8</ele>
        <time>2013-09-01T08:30:54Z</time>
      </trkpt>
      <trkpt lat="47.26052" lon="-1.70503">
        <ele>58.9</ele>
        <time>2013-09-01T08:30:58Z</time>
      </trkpt>
      <trkpt lat="47.26023" lon="-1.70524">
        <ele>58.6</ele>
        <time>2013-09-01T08:31:02Z</time>
      </trkpt>
      <trkpt lat="47.25995" lon="-1.70544">
        <ele>56</ele>
        <time>2013-09-01T08:31:06Z</time>
      </trkpt>
      <trkpt lat="47.25975" lon="-1.70565">
        <ele>57</ele>
        <time>2013-09-01T08:31:10Z</time>
      </trkpt>
      <trkpt lat="47.25954" lon="-1.70588">
        <ele>62.2</ele>
        <time>2013-09-01T08:31:14Z</time>
      </trkpt>
      <trkpt lat="47.25936" lon="-1.70606">
        <ele>62.7</ele>
        <time>2013-09-01T08:31:18Z</time>
      </trkpt>
      <trkpt lat="47.2592" lon="-1.7062">
        <ele>62.9</ele>
        <time>2013-09-01T08:31:22Z</time>
      </trkpt>
      <trkpt lat="47.25908" lon="-1.70636">
        <ele>62.8</ele>
        <time>2013-09-01T08:31:26Z</time>
      </trkpt>
      <trkpt lat="47.25888" lon="-1.70661">
        <ele>62.1</ele>
        <time>2013-09-01T08:31:30Z</time>
      </trkpt>
      <trkpt lat="47.2587" lon="-1.70676">
        <ele>62</ele>
        <time>2013-09-01T08:31:34Z</time>
      </trkpt>
      <trkpt lat="47.25852" lon="-1.70691">
        <ele>62.5</ele>
        <time>2013-09-01T08:31:38Z</time>
      </trkpt>
      <trkpt lat="47.25835" lon="-1.70706">
        <ele>61.6</ele>
        <time>2013-09-01T08:31:42Z</time>
      </trkpt>
      <trkpt lat="47.25816" lon="-1.70722">
        <ele>64.4</ele>
        <time>2013-09-01T08:31:46Z</time>
      </trkpt>
      <trkpt lat="47.25806" lon="-1.70735">
        <ele>64</ele>
        <time>2013-09-01T08:31:50Z</time>
      </trkpt>
      <trkpt lat="47.25784" lon="-1.70748">
        <ele>64</ele>
        <time>2013-09-01T08:31:54Z</time>
      </trkpt>
      <trkpt lat="47.25765" lon="-1.70753">
        <ele>62.4</ele>
        <time>2013-09-01T08:31:58Z</time>
      </trkpt>
      <trkpt lat="47.25746" lon="-1.70753">
        <ele>63.1</ele>
        <time>2013-09-01T08:32:02Z</time>
      </trkpt>
      <trkpt lat="47.25731" lon="-1.70748">
        <ele>62.6</ele>
        <time>2013-09-01T08:32:06Z</time>
      </trkpt>
      <trkpt lat="47.25709" lon="-1.70754">
        <ele>63.2</ele>
        <time>2013-09-01T08:32:10Z</time>
      </trkpt>
      <trkpt lat="47.25691" lon="-1.7075">
        <ele>65.5</ele>
        <time>2013-09-01T08:32:14Z</time>
      </trkpt>
      <trkpt lat="47.25675" lon="-1.70749">
        <ele>66.8</ele>
        <time>2013-09-01T08:32:18Z</time>
      </trkpt>
      <trkpt lat="47.25659" lon="-1.70744">
        <ele>67.5</ele>
        <time>2013-09-01T08:32:22Z</time>
      </trkpt>
      <trkpt lat="47.25638" lon="-1.70744">
        <ele>69</ele>
        <time>2013-09-01T08:32:26Z</time>
      </trkpt>
      <trkpt lat="47.2562" lon="-1.70746">
        <ele>69.6</ele>
        <time>2013-09-01T08:32:31Z</time>
      </trkpt>
      <trkpt lat="47.25605" lon="-1.70745">
        <ele>71.6</ele>
        <time>2013-09-01T08:32:35Z</time>
      </trkpt>
      <trkpt lat="47.25594" lon="-1.70734">
        <ele>74.7</ele>
        <time>2013-09-01T08:32:39Z</time>
      </trkpt>
      <trkpt lat="47.2559" lon="-1.70712">
        <ele>74.9</ele>
        <time>2013-09-01T08:32:43Z</time>
      </trkpt>
      <trkpt lat="47.25587" lon="-1.70689">
        <ele>78.7</ele>
        <time>2013-09-01T08:32:47Z</time>
      </trkpt>
      <trkpt lat="47.25584" lon="-1.70674">
        <ele>77.5</ele>
        <time>2013-09-01T08:32:50Z</time>
      </trkpt>
      <trkpt lat="47.2558" lon="-1.70649">
        <ele>80</ele>
        <time>2013-09-01T08:32:54Z</time>
      </trkpt>
      <trkpt lat="47.25574" lon="-1.70624">
        <ele>78.5</ele>
        <time>2013-09-01T08:32:58Z</time>
      </trkpt>
      <trkpt lat="47.25569" lon="-1.706">
        <ele>81.1</ele>
        <time>2013-09-01T08:33:02Z</time>
      </trkpt>
      <trkpt lat="47.25566" lon="-1.70579">
        <ele>79.9</ele>
        <time>2013-09-01T08:33:06Z</time>
      </trkpt>
      <trkpt lat="47.25567" lon="-1.7056">
        <ele>76.7</ele>
        <time>2013-09-01T08:33:10Z</time>
      </trkpt>
      <trkpt lat="47.25573" lon="-1.70542">
        <ele>77.5</ele>
        <time>2013-09-01T08:33:14Z</time>
      </trkpt>
      <trkpt lat="47.25582" lon="-1.70524">
        <ele>75.7</ele>
        <time>2013-09-01T08:33:18Z</time>
      </trkpt>
      <trkpt lat="47.25592" lon="-1.70507">
        <ele>72.3</ele>
        <time>2013-09-01T08:33:22Z</time>
      </trkpt>
      <trkpt lat="47.25602" lon="-1.70491">
        <ele>67.5</ele>
        <time>2013-09-01T08:33:26Z</time>
      </trkpt>
      <trkpt lat="47.25612" lon="-1.70474">
        <ele>66.7</ele>
        <time>2013-09-01T08:33:30Z</time>
      </trkpt>
      <trkpt lat="47.25625" lon="-1.70458">
        <ele>66.4</ele>
        <time>2013-09-01T08:33:34Z</time>
      </trkpt>
      <trkpt lat="47.25642" lon="-1.70445">
        <ele>65.9</ele>
        <time>2013-09-01T08:33:38Z</time>
      </trkpt>
      <trkpt lat="47.25659" lon="-1.70433">
        <ele>62.5</ele>
        <time>2013-09-01T08:33:42Z</time>
      </trkpt>
      <trkpt lat="47.25677" lon="-1.70415">
        <ele>63.1</ele>
        <time>2013-09-01T08:33:46Z</time>
      </trkpt>
      <trkpt lat="47.25693" lon="-1.70401">
        <ele>61.6</ele>
        <time>2013-09-01T08:33:50Z</time>
      </trkpt>
      <trkpt lat="47.25712" lon="-1.70384">
        <ele>63</ele>
        <time>2013-09-01T08:33:54Z</time>
      </trkpt>
      <trkpt lat="47.2573" lon="-1.70371">
        <ele>62.4</ele>
        <time>2013-09-01T08:33:58Z</time>
      </trkpt>
      <trkpt lat="47.25749" lon="-1.70359">
        <ele>61.5</ele>
        <time>2013-09-01T08:34:02Z</time>
      </trkpt>
      <trkpt lat="47.25771" lon="-1.70343">
        <ele>59.8</ele>
        <time>2013-09-01T08:34:06Z</time>
      </trkpt>
      <trkpt lat="47.25792" lon="-1.70325">
        <ele>59.5</ele>
        <time>2013-09-01T08:34:10Z</time>
      </trkpt>
      <trkpt lat="47.25797" lon="-1.70295">
        <ele>61.8</ele>
        <time>2013-09-01T08:34:14Z</time>
      </trkpt>
      <trkpt lat="47.25792" lon="-1.70273">
        <ele>59.9</ele>
        <time>2013-09-01T08:34:18Z</time>
      </trkpt>
      <trkpt lat="47.25784" lon="-1.70252">
        <ele>62.4</ele>
        <time>2013-09-01T08:34:22Z</time>
      </trkpt>
      <trkpt lat="47.25776" lon="-1.70228">
        <ele>62.1</ele>
        <time>2013-09-01T08:34:26Z</time>
      </trkpt>
      <trkpt lat="47.2577" lon="-1.70207">
        <ele>63</ele>
        <time>2013-09-01T08:34:30Z</time>
      </trkpt>
      <trkpt lat="47.25764" lon="-1.70188">
        <ele>64.4</ele>
        <time>2013-09-01T08:34:34Z</time>
      </trkpt>
      <trkpt lat="47.25761" lon="-1.70172">
        <ele>64.9</ele>
        <time>2013-09-01T08:34:38Z</time>
      </trkpt>
      <trkpt lat="47.25759" lon="-1.70158">
        <ele>63.8</ele>
        <time>2013-09-01T08:34:42Z</time>
      </trkpt>
      <trkpt lat="47.25754" lon="-1.70133">
        <ele>61.8</ele>
        <time>2013-09-01T08:34:50Z</time>
      </trkpt>
      <trkpt lat="47.25752" lon="-1.70119">
        <ele>61.3</ele>
        <time>2013-09-01T08:34:54Z</time>
      </trkpt>
      <trkpt lat="47.25748" lon="-1.70104">
        <ele>60.5</ele>
        <time>2013-09-01T08:34:58Z</time>
      </trkpt>
      <trkpt lat="47.25742" lon="-1.70091">
        <ele>58.7</ele>
        <time>2013-09-01T08:35:02Z</time>
      </trkpt>
      <trkpt lat="47.25735" lon="-1.7007">
        <ele>58.3</ele>
        <time>2013-09-01T08:35:06Z</time>
      </trkpt>
      <trkpt lat="47.25729" lon="-1.70047">
        <ele>58.6</ele>
        <time>2013-09-01T08:35:10Z</time>
      </trkpt>
      <trkpt lat="47.25717" lon="-1.70009">
        <ele>58.4</ele>
        <time>2013-09-01T08:35:14Z</time>
      </trkpt>
      <trkpt lat="47.25709" lon="-1.69991">
        <ele>60.3</ele>
        <time>2013-09-01T08:35:18Z</time>
      </trkpt>
      <trkpt lat="47.257" lon="-1.69992">
        <ele>61.4</ele>
        <time>2013-09-01T08:35:22Z</time>
      </trkpt>
      <trkpt lat="47.25689" lon="-1.70001">
        <ele>63.2</ele>
        <time>2013-09-01T08:35:26Z</time>
      </trkpt>
      <trkpt lat="47.25678" lon="-1.7001">
        <ele>62.6</ele>
        <time>2013-09-01T08:35:30Z</time>
      </trkpt>
      <trkpt lat="47.25664" lon="-1.70013">
        <ele>62.8</ele>
        <time>2013-09-01T08:35:34Z</time>
      </trkpt>
      <trkpt lat="47.2565" lon="-1.70019">
        <ele>62.5</ele>
        <time>2013-09-01T08:35:38Z</time>
      </trkpt>
      <trkpt lat="47.25639" lon="-1.70028">
        <ele>61.6</ele>
        <time>2013-09-01T08:35:42Z</time>
      </trkpt>
      <trkpt lat="47.25628" lon="-1.70035">
        <ele>60.6</ele>
        <time>2013-09-01T08:35:46Z</time>
      </trkpt>
      <trkpt lat="47.25619" lon="-1.70034">
        <ele>61.2</ele>
        <time>2013-09-01T08:35:50Z</time>
      </trkpt>
      <trkpt lat="47.25609" lon="-1.70035">
        <ele>60.4</ele>
        <time>2013-09-01T08:35:54Z</time>
      </trkpt>
      <trkpt lat="47.25599" lon="-1.70039">
        <ele>62</ele>
        <time>2013-09-01T08:35:58Z</time>
      </trkpt>
      <trkpt lat="47.25587" lon="-1.70044">
        <ele>63.3</ele>
        <time>2013-09-01T08:36:02Z</time>
      </trkpt>
      <trkpt lat="47.25572" lon="-1.70047">
        <ele>65.4</ele>
        <time>2013-09-01T08:36:06Z</time>
      </trkpt>
      <trkpt lat="47.25557" lon="-1.7005">
        <ele>60.6</ele>
        <time>2013-09-01T08:36:10Z</time>
      </trkpt>
      <trkpt lat="47.25542" lon="-1.70052">
        <ele>61.7</ele>
        <time>2013-09-01T08:36:14Z</time>
      </trkpt>
      <trkpt lat="47.25526" lon="-1.70062">
        <ele>61.6</ele>
        <time>2013-09-01T08:36:18Z</time>
      </trkpt>
      <trkpt lat="47.25511" lon="-1.70067">
        <ele>62.6</ele>
        <time>2013-09-01T08:36:22Z</time>
      </trkpt>
      <trkpt lat="47.25495" lon="-1.70076">
        <ele>62.7</ele>
        <time>2013-09-01T08:36:26Z</time>
      </trkpt>
      <trkpt lat="47.25481" lon="-1.70087">
        <ele>64.6</ele>
        <time>2013-09-01T08:36:30Z</time>
      </trkpt>
      <trkpt lat="47.25468" lon="-1.70095">
        <ele>64.6</ele>
        <time>2013-09-01T08:36:34Z</time>
      </trkpt>
      <trkpt lat="47.25454" lon="-1.701">
        <ele>63.2</ele>
        <time>2013-09-01T08:36:38Z</time>
      </trkpt>
      <trkpt lat="47.2544" lon="-1.70104">
        <ele>62.7</ele>
        <time>2013-09-01T08:36:42Z</time>
      </trkpt>
      <trkpt lat="47.25423" lon="-1.701">
        <ele>65</ele>
        <time>2013-09-01T08:36:46Z</time>
      </trkpt>
      <trkpt lat="47.25408" lon="-1.70096">
        <ele>64.5</ele>
        <time>2013-09-01T08:36:50Z</time>
      </trkpt>
      <trkpt lat="47.25394" lon="-1.70092">
        <ele>63.1</ele>
        <time>2013-09-01T08:36:54Z</time>
      </trkpt>
      <trkpt lat="47.25378" lon="-1.70085">
        <ele>63.1</ele>
        <time>2013-09-01T08:36:58Z</time>
      </trkpt>
      <trkpt lat="47.25366" lon="-1.70071">
        <ele>62.9</ele>
        <time>2013-09-01T08:37:02Z</time>
      </trkpt>
      <trkpt lat="47.25363" lon="-1.70054">
        <ele>62.3</ele>
        <time>2013-09-01T08:37:06Z</time>
      </trkpt>
      <trkpt lat="47.25366" lon="-1.70034">
        <ele>58.1</ele>
        <time>2013-09-01T08:37:10Z</time>
      </trkpt>
      <trkpt lat="47.25371" lon="-1.70013">
        <ele>58.4</ele>
        <time>2013-09-01T08:37:14Z</time>
      </trkpt>
      <trkpt lat="47.25374" lon="-1.69982">
        <ele>56.4</ele>
        <time>2013-09-01T08:37:18Z</time>
      </trkpt>
      <trkpt lat="47.25358" lon="-1.69928">
        <ele>52.4</ele>
        <time>2013-09-01T08:37:22Z</time>
      </trkpt>
      <trkpt lat="47.25343" lon="-1.69886">
        <ele>58.1</ele>
        <time>2013-09-01T08:37:26Z</time>
      </trkpt>
      <trkpt lat="47.25332" lon="-1.69848">
        <ele>58</ele>
        <time>2013-09-01T08:37:30Z</time>
      </trkpt>
      <trkpt lat="47.25324" lon="-1.69817">
        <ele>55.4</ele>
        <time>2013-09-01T08:37:34Z</time>
      </trkpt>
      <trkpt lat="47.25317" lon="-1.69783">
        <ele>59.1</ele>
        <time>2013-09-01T08:37:38Z</time>
      </trkpt>
      <trkpt lat="47.25308" lon="-1.69748">
        <ele>57.4</ele>
        <time>2013-09-01T08:37:42Z</time>
      </trkpt>
      <trkpt lat="47.25302" lon="-1.69718">
        <ele>58.3</ele>
        <time>2013-09-01T08:37:46Z</time>
      </trkpt>
      <trkpt lat="47.2529" lon="-1.69689">
        <ele>57.2</ele>
        <time>2013-09-01T08:37:50Z</time>
      </trkpt>
      <trkpt lat="47.25282" lon="-1.69662">
        <ele>57.7</ele>
        <time>2013-09-01T08:37:54Z</time>
      </trkpt>
      <trkpt lat="47.25276" lon="-1.69633">
        <ele>57.1</ele>
        <time>2013-09-01T08:37:58Z</time>
      </trkpt>
      <trkpt lat="47.2527" lon="-1.69604">
        <ele>56.6</ele>
        <time>2013-09-01T08:38:02Z</time>
      </trkpt>
      <trkpt lat="47.25266" lon="-1.69569">
        <ele>58.5</ele>
        <time>2013-09-01T08:38:06Z</time>
      </trkpt>
      <trkpt lat="47.25265" lon="-1.6954">
        <ele>61.1</ele>
        <time>2013-09-01T08:38:10Z</time>
      </trkpt>
      <trkpt lat="47.25267" lon="-1.69514">
        <ele>54.2</ele>
        <time>2013-09-01T08:38:14Z</time>
      </trkpt>
      <trkpt lat="47.25259" lon="-1.69493">
        <ele>57</ele>
        <time>2013-09-01T08:38:18Z</time>
      </trkpt>
      <trkpt lat="47.25247" lon="-1.69486">
        <ele>56.9</ele>
        <time>2013-09-01T08:38:22Z</time>
      </trkpt>
      <trkpt lat="47.25229" lon="-1.69483">
        <ele>50.6</ele>
        <time>2013-09-01T08:38:26Z</time>
      </trkpt>
      <trkpt lat="47.25213" lon="-1.69481">
        <ele>50.2</ele>
        <time>2013-09-01T08:38:30Z</time>
      </trkpt>
      <trkpt lat="47.25197" lon="-1.6948">
        <ele>51.6</ele>
        <time>2013-09-01T08:38:34Z</time>
      </trkpt>
      <trkpt lat="47.25184" lon="-1.69478">
        <ele>51.3</ele>
        <time>2013-09-01T08:38:38Z</time>
      </trkpt>
      <trkpt lat="47.25168" lon="-1.69476">
        <ele>50.5</ele>
        <time>2013-09-01T08:38:42Z</time>
      </trkpt>
      <trkpt lat="47.2515" lon="-1.69474">
        <ele>49.3</ele>
        <time>2013-09-01T08:38:46Z</time>
      </trkpt>
      <trkpt lat="47.25136" lon="-1.69472">
        <ele>46</ele>
        <time>2013-09-01T08:38:50Z</time>
      </trkpt>
      <trkpt lat="47.25123" lon="-1.69475">
        <ele>42.8</ele>
        <time>2013-09-01T08:38:54Z</time>
      </trkpt>
      <trkpt lat="47.25112" lon="-1.6948">
        <ele>44</ele>
        <time>2013-09-01T08:38:58Z</time>
      </trkpt>
      <trkpt lat="47.25097" lon="-1.69486">
        <ele>43.9</ele>
        <time>2013-09-01T08:39:02Z</time>
      </trkpt>
      <trkpt lat="47.25085" lon="-1.69493">
        <ele>45.1</ele>
        <time>2013-09-01T08:39:06Z</time>
      </trkpt>
      <trkpt lat="47.25075" lon="-1.69507">
        <ele>47.6</ele>
        <time>2013-09-01T08:39:10Z</time>
      </trkpt>
      <trkpt lat="47.25064" lon="-1.69513">
        <ele>50.9</ele>
        <time>2013-09-01T08:39:14Z</time>
      </trkpt>
      <trkpt lat="47.25051" lon="-1.69515">
        <ele>51.3</ele>
        <time>2013-09-01T08:39:18Z</time>
      </trkpt>
      <trkpt lat="47.25037" lon="-1.69517">
        <ele>53.5</ele>
        <time>2013-09-01T08:39:22Z</time>
      </trkpt>
      <trkpt lat="47.25024" lon="-1.69517">
        <ele>54.6</ele>
        <time>2013-09-01T08:39:26Z</time>
      </trkpt>
      <trkpt lat="47.2501" lon="-1.69522">
        <ele>55.8</ele>
        <time>2013-09-01T08:39:30Z</time>
      </trkpt>
      <trkpt lat="47.24997" lon="-1.69527">
        <ele>55.8</ele>
        <time>2013-09-01T08:39:34Z</time>
      </trkpt>
      <trkpt lat="47.2498" lon="-1.69537">
        <ele>59.3</ele>
        <time>2013-09-01T08:39:38Z</time>
      </trkpt>
      <trkpt lat="47.24964" lon="-1.69552">
        <ele>63.2</ele>
        <time>2013-09-01T08:39:42Z</time>
      </trkpt>
      <trkpt lat="47.2495" lon="-1.69559">
        <ele>63.8</ele>
        <time>2013-09-01T08:39:47Z</time>
      </trkpt>
      <trkpt lat="47.24936" lon="-1.69566">
        <ele>68.8</ele>
        <time>2013-09-01T08:39:51Z</time>
      </trkpt>
      <trkpt lat="47.24921" lon="-1.69575">
        <ele>65.3</ele>
        <time>2013-09-01T08:39:55Z</time>
      </trkpt>
      <trkpt lat="47.24908" lon="-1.69587">
        <ele>63.8</ele>
        <time>2013-09-01T08:39:59Z</time>
      </trkpt>
      <trkpt lat="47.24898" lon="-1.69601">
        <ele>63.1</ele>
        <time>2013-09-01T08:40:03Z</time>
      </trkpt>
      <trkpt lat="47.24891" lon="-1.6961">
        <ele>62</ele>
        <time>2013-09-01T08:40:06Z</time>
      </trkpt>
      <trkpt lat="47.24882" lon="-1.69625">
        <ele>62</ele>
        <time>2013-09-01T08:40:10Z</time>
      </trkpt>
      <trkpt lat="47.24875" lon="-1.69646">
        <ele>65.7</ele>
        <time>2013-09-01T08:40:14Z</time>
      </trkpt>
      <trkpt lat="47.24876" lon="-1.69666">
        <ele>66.5</ele>
        <time>2013-09-01T08:40:18Z</time>
      </trkpt>
      <trkpt lat="47.24866" lon="-1.69687">
        <ele>64</ele>
        <time>2013-09-01T08:40:22Z</time>
      </trkpt>
      <trkpt lat="47.24852" lon="-1.69696">
        <ele>62.2</ele>
        <time>2013-09-01T08:40:26Z</time>
      </trkpt>
      <trkpt lat="47.24841" lon="-1.69703">
        <ele>62.8</ele>
        <time>2013-09-01T08:40:30Z</time>
      </trkpt>
      <trkpt lat="47.24826" lon="-1.69716">
        <ele>59.4</ele>
        <time>2013-09-01T08:40:34Z</time>
      </trkpt>
      <trkpt lat="47.24813" lon="-1.69726">
        <ele>60.1</ele>
        <time>2013-09-01T08:40:38Z</time>
      </trkpt>
      <trkpt lat="47.24801" lon="-1.69735">
        <ele>60</ele>
        <time>2013-09-01T08:40:42Z</time>
      </trkpt>
      <trkpt lat="47.24786" lon="-1.69744">
        <ele>59.4</ele>
        <time>2013-09-01T08:40:46Z</time>
      </trkpt>
      <trkpt lat="47.2477" lon="-1.6975">
        <ele>60.1</ele>
        <time>2013-09-01T08:40:50Z</time>
      </trkpt>
      <trkpt lat="47.24755" lon="-1.69758">
        <ele>60.2</ele>
        <time>2013-09-01T08:40:54Z</time>
      </trkpt>
      <trkpt lat="47.24733" lon="-1.6977">
        <ele>60.6</ele>
        <time>2013-09-01T08:40:58Z</time>
      </trkpt>
      <trkpt lat="47.24719" lon="-1.69783">
        <ele>62.3</ele>
        <time>2013-09-01T08:41:02Z</time>
      </trkpt>
      <trkpt lat="47.24708" lon="-1.698">
        <ele>62</ele>
        <time>2013-09-01T08:41:06Z</time>
      </trkpt>
      <trkpt lat="47.24699" lon="-1.69815">
        <ele>59.6</ele>
        <time>2013-09-01T08:41:10Z</time>
      </trkpt>
      <trkpt lat="47.24688" lon="-1.69826">
        <ele>57.3</ele>
        <time>2013-09-01T08:41:14Z</time>
      </trkpt>
      <trkpt lat="47.24677" lon="-1.69833">
        <ele>55.6</ele>
        <time>2013-09-01T08:41:18Z</time>
      </trkpt>
      <trkpt lat="47.24663" lon="-1.6984">
        <ele>53.8</ele>
        <time>2013-09-01T08:41:22Z</time>
      </trkpt>
      <trkpt lat="47.24645" lon="-1.69846">
        <ele>55.1</ele>
        <time>2013-09-01T08:41:26Z</time>
      </trkpt>
      <trkpt lat="47.24628" lon="-1.69847">
        <ele>54.4</ele>
        <time>2013-09-01T08:41:30Z</time>
      </trkpt>
      <trkpt lat="47.24614" lon="-1.69845">
        <ele>56.1</ele>
        <time>2013-09-01T08:41:34Z</time>
      </trkpt>
      <trkpt lat="47.24602" lon="-1.69844">
        <ele>54.3</ele>
        <time>2013-09-01T08:41:38Z</time>
      </trkpt>
      <trkpt lat="47.24588" lon="-1.69845">
        <ele>52.6</ele>
        <time>2013-09-01T08:41:42Z</time>
      </trkpt>
      <trkpt lat="47.24572" lon="-1.69851">
        <ele>51</ele>
        <time>2013-09-01T08:41:46Z</time>
      </trkpt>
      <trkpt lat="47.24557" lon="-1.69855">
        <ele>50.1</ele>
        <time>2013-09-01T08:41:50Z</time>
      </trkpt>
      <trkpt lat="47.24537" lon="-1.69867">
        <ele>48.7</ele>
        <time>2013-09-01T08:41:54Z</time>
      </trkpt>
      <trkpt lat="47.24518" lon="-1.69879">
        <ele>47.8</ele>
        <time>2013-09-01T08:41:58Z</time>
      </trkpt>
      <trkpt lat="47.24501" lon="-1.69888">
        <ele>46.5</ele>
        <time>2013-09-01T08:42:02Z</time>
      </trkpt>
      <trkpt lat="47.24493" lon="-1.69896">
        <ele>44.3</ele>
        <time>2013-09-01T08:42:06Z</time>
      </trkpt>
      <trkpt lat="47.24486" lon="-1.6992">
        <ele>44.2</ele>
        <time>2013-09-01T08:42:10Z</time>
      </trkpt>
      <trkpt lat="47.24476" lon="-1.6994">
        <ele>47.1</ele>
        <time>2013-09-01T08:42:14Z</time>
      </trkpt>
      <trkpt lat="47.24465" lon="-1.69954">
        <ele>46.8</ele>
        <time>2013-09-01T08:42:18Z</time>
      </trkpt>
      <trkpt lat="47.24451" lon="-1.69966">
        <ele>45.7</ele>
        <time>2013-09-01T08:42:22Z</time>
      </trkpt>
      <trkpt lat="47.24434" lon="-1.6999">
        <ele>44.5</ele>
        <time>2013-09-01T08:42:26Z</time>
      </trkpt>
      <trkpt lat="47.24419" lon="-1.70016">
        <ele>48.8</ele>
        <time>2013-09-01T08:42:30Z</time>
      </trkpt>
      <trkpt lat="47.24407" lon="-1.70036">
        <ele>51.4</ele>
        <time>2013-09-01T08:42:34Z</time>
      </trkpt>
      <trkpt lat="47.24394" lon="-1.70052">
        <ele>52.4</ele>
        <time>2013-09-01T08:42:38Z</time>
      </trkpt>
      <trkpt lat="47.24382" lon="-1.70066">
        <ele>50.6</ele>
        <time>2013-09-01T08:42:42Z</time>
      </trkpt>
      <trkpt lat="47.2437" lon="-1.7008">
        <ele>49.9</ele>
        <time>2013-09-01T08:42:46Z</time>
      </trkpt>
      <trkpt lat="47.24357" lon="-1.70094">
        <ele>49.7</ele>
        <time>2013-09-01T08:42:50Z</time>
      </trkpt>
      <trkpt lat="47.24341" lon="-1.70116">
        <ele>48.5</ele>
        <time>2013-09-01T08:42:54Z</time>
      </trkpt>
      <trkpt lat="47.24318" lon="-1.7015">
        <ele>47.2</ele>
        <time>2013-09-01T08:42:58Z</time>
      </trkpt>
      <trkpt lat="47.24305" lon="-1.70166">
        <ele>45.7</ele>
        <time>2013-09-01T08:43:02Z</time>
      </trkpt>
      <trkpt lat="47.24293" lon="-1.70176">
        <ele>45.2</ele>
        <time>2013-09-01T08:43:06Z</time>
      </trkpt>
      <trkpt lat="47.2427" lon="-1.70185">
        <ele>52.7</ele>
        <time>2013-09-01T08:43:10Z</time>
      </trkpt>
      <trkpt lat="47.24255" lon="-1.70197">
        <ele>56</ele>
        <time>2013-09-01T08:43:14Z</time>
      </trkpt>
      <trkpt lat="47.24239" lon="-1.70213">
        <ele>53.6</ele>
        <time>2013-09-01T08:43:18Z</time>
      </trkpt>
      <trkpt lat="47.24224" lon="-1.70228">
        <ele>49.3</ele>
        <time>2013-09-01T08:43:22Z</time>
      </trkpt>
      <trkpt lat="47.24201" lon="-1.7025">
        <ele>49.5</ele>
        <time>2013-09-01T08:43:26Z</time>
      </trkpt>
      <trkpt lat="47.24186" lon="-1.70264">
        <ele>46.9</ele>
        <time>2013-09-01T08:43:30Z</time>
      </trkpt>
      <trkpt lat="47.24168" lon="-1.70281">
        <ele>47</ele>
        <time>2013-09-01T08:43:34Z</time>
      </trkpt>
      <trkpt lat="47.24149" lon="-1.70301">
        <ele>44.6</ele>
        <time>2013-09-01T08:43:38Z</time>
      </trkpt>
      <trkpt lat="47.2413" lon="-1.70323">
        <ele>47.9</ele>
        <time>2013-09-01T08:43:42Z</time>
      </trkpt>
      <trkpt lat="47.24124" lon="-1.70352">
        <ele>48.8</ele>
        <time>2013-09-01T08:43:46Z</time>
      </trkpt>
      <trkpt lat="47.24128" lon="-1.70377">
        <ele>47.1</ele>
        <time>2013-09-01T08:43:50Z</time>
      </trkpt>
      <trkpt lat="47.2413" lon="-1.70401">
        <ele>46.5</ele>
        <time>2013-09-01T08:43:54Z</time>
      </trkpt>
      <trkpt lat="47.24124" lon="-1.7043">
        <ele>46.2</ele>
        <time>2013-09-01T08:43:58Z</time>
      </trkpt>
      <trkpt lat="47.24123" lon="-1.70456">
        <ele>41.6</ele>
        <time>2013-09-01T08:44:02Z</time>
      </trkpt>
      <trkpt lat="47.2412" lon="-1.70484">
        <ele>41.1</ele>
        <time>2013-09-01T08:44:06Z</time>
      </trkpt>
      <trkpt lat="47.24118" lon="-1.70509">
        <ele>41.6</ele>
        <time>2013-09-01T08:44:10Z</time>
      </trkpt>
      <trkpt lat="47.24118" lon="-1.70533">
        <ele>43</ele>
        <time>2013-09-01T08:44:14Z</time>
      </trkpt>
      <trkpt lat="47.24118" lon="-1.70551">
        <ele>41.9</ele>
        <time>2013-09-01T08:44:18Z</time>
      </trkpt>
      <trkpt lat="47.24118" lon="-1.70573">
        <ele>39.3</ele>
        <time>2013-09-01T08:44:22Z</time>
      </trkpt>
      <trkpt lat="47.24118" lon="-1.70602">
        <ele>38.8</ele>
        <time>2013-09-01T08:44:26Z</time>
      </trkpt>
      <trkpt lat="47.24116" lon="-1.70634">
        <ele>36.2</ele>
        <time>2013-09-01T08:44:30Z</time>
      </trkpt>
      <trkpt lat="47.24109" lon="-1.70667">
        <ele>35.2</ele>
        <time>2013-09-01T08:44:34Z</time>
      </trkpt>
      <trkpt lat="47.24104" lon="-1.70698">
        <ele>33</ele>
        <time>2013-09-01T08:44:38Z</time>
      </trkpt>
      <trkpt lat="47.24096" lon="-1.70722">
        <ele>32.4</ele>
        <time>2013-09-01T08:44:42Z</time>
      </trkpt>
      <trkpt lat="47.24084" lon="-1.70748">
        <ele>30.8</ele>
        <time>2013-09-01T08:44:46Z</time>
      </trkpt>
      <trkpt lat="47.24071" lon="-1.70787">
        <ele>29.2</ele>
        <time>2013-09-01T08:44:50Z</time>
      </trkpt>
      <trkpt lat="47.24066" lon="-1.70821">
        <ele>27.2</ele>
        <time>2013-09-01T08:44:54Z</time>
      </trkpt>
      <trkpt lat="47.24067" lon="-1.70861">
        <ele>27.4</ele>
        <time>2013-09-01T08:44:58Z</time>
      </trkpt>
      <trkpt lat="47.24069" lon="-1.70893">
        <ele>27.2</ele>
        <time>2013-09-01T08:45:02Z</time>
      </trkpt>
      <trkpt lat="47.24069" lon="-1.70926">
        <ele>27.4</ele>
        <time>2013-09-01T08:45:06Z</time>
      </trkpt>
      <trkpt lat="47.24069" lon="-1.70941">
        <ele>28.3</ele>
        <time>2013-09-01T08:45:10Z</time>
      </trkpt>
      <trkpt lat="47.24052" lon="-1.70958">
        <ele>27.2</ele>
        <time>2013-09-01T08:45:14Z</time>
      </trkpt>
      <trkpt lat="47.24034" lon="-1.70978">
        <ele>31.1</ele>
        <time>2013-09-01T08:45:18Z</time>
      </trkpt>
      <trkpt lat="47.24023" lon="-1.70995">
        <ele>30.2</ele>
        <time>2013-09-01T08:45:22Z</time>
      </trkpt>
      <trkpt lat="47.24009" lon="-1.71018">
        <ele>28.2</ele>
        <time>2013-09-01T08:45:26Z</time>
      </trkpt>
      <trkpt lat="47.23991" lon="-1.71044">
        <ele>27.3</ele>
        <time>2013-09-01T08:45:30Z</time>
      </trkpt>
      <trkpt lat="47.23966" lon="-1.71071">
        <ele>27.1</ele>
        <time>2013-09-01T08:45:34Z</time>
      </trkpt>
      <trkpt lat="47.23952" lon="-1.71088">
        <ele>26.5</ele>
        <time>2013-09-01T08:45:38Z</time>
      </trkpt>
      <trkpt lat="47.23942" lon="-1.71106">
        <ele>26.1</ele>
        <time>2013-09-01T08:45:42Z</time>
      </trkpt>
      <trkpt lat="47.23934" lon="-1.71124">
        <ele>25.7</ele>
        <time>2013-09-01T08:45:46Z</time>
      </trkpt>
      <trkpt lat="47.23929" lon="-1.71142">
        <ele>25.7</ele>
        <time>2013-09-01T08:45:50Z</time>
      </trkpt>
      <trkpt lat="47.23929" lon="-1.7116">
        <ele>25.6</ele>
        <time>2013-09-01T08:45:54Z</time>
      </trkpt>
      <trkpt lat="47.23928" lon="-1.71179">
        <ele>25</ele>
        <time>2013-09-01T08:45:58Z</time>
      </trkpt>
      <trkpt lat="47.23922" lon="-1.71202">
        <ele>23.6</ele>
        <time>2013-09-01T08:46:02Z</time>
      </trkpt>
      <trkpt lat="47.23914" lon="-1.71224">
        <ele>21.4</ele>
        <time>2013-09-01T08:46:06Z</time>
      </trkpt>
      <trkpt lat="47.23904" lon="-1.71249">
        <ele>20.4</ele>
        <time>2013-09-01T08:46:10Z</time>
      </trkpt>
      <trkpt lat="47.23895" lon="-1.71271">
        <ele>20.9</ele>
        <time>2013-09-01T08:46:14Z</time>
      </trkpt>
      <trkpt lat="47.23888" lon="-1.71291">
        <ele>22.9</ele>
        <time>2013-09-01T08:46:18Z</time>
      </trkpt>
      <trkpt lat="47.23878" lon="-1.71303">
        <ele>23.2</ele>
        <time>2013-09-01T08:46:22Z</time>
      </trkpt>
      <trkpt lat="47.23869" lon="-1.71319">
        <ele>23.5</ele>
        <time>2013-09-01T08:46:26Z</time>
      </trkpt>
      <trkpt lat="47.23857" lon="-1.71362">
        <ele>22.7</ele>
        <time>2013-09-01T08:46:30Z</time>
      </trkpt>
      <trkpt lat="47.23851" lon="-1.71393">
        <ele>23.8</ele>
        <time>2013-09-01T08:46:34Z</time>
      </trkpt>
      <trkpt lat="47.23851" lon="-1.7142">
        <ele>24.9</ele>
        <time>2013-09-01T08:46:38Z</time>
      </trkpt>
      <trkpt lat="47.23845" lon="-1.71446">
        <ele>24.1</ele>
        <time>2013-09-01T08:46:42Z</time>
      </trkpt>
      <trkpt lat="47.23843" lon="-1.71466">
        <ele>22.7</ele>
        <time>2013-09-01T08:46:46Z</time>
      </trkpt>
      <trkpt lat="47.2384" lon="-1.71486">
        <ele>21.6</ele>
        <time>2013-09-01T08:46:50Z</time>
      </trkpt>
      <trkpt lat="47.23835" lon="-1.71506">
        <ele>19.8</ele>
        <time>2013-09-01T08:46:54Z</time>
      </trkpt>
      <trkpt lat="47.23841" lon="-1.71547">
        <ele>18.5</ele>
        <time>2013-09-01T08:47:06Z</time>
      </trkpt>
      <trkpt lat="47.23759" lon="-1.71789">
        <ele>6.7</ele>
        <time>2013-09-01T08:47:46Z</time>
      </trkpt>
      <trkpt lat="47.23759" lon="-1.71803">
        <ele>13</ele>
        <time>2013-09-01T08:48:06Z</time>
      </trkpt>
      <trkpt lat="47.23768" lon="-1.71794">
        <ele>18.9</ele>
        <time>2013-09-01T08:48:22Z</time>
      </trkpt>
      <trkpt lat="47.23772" lon="-1.71779">
        <ele>16.5</ele>
        <time>2013-09-01T08:48:38Z</time>
      </trkpt>
      <trkpt lat="47.23782" lon="-1.71765">
        <ele>9.2</ele>
        <time>2013-09-01T08:48:50Z</time>
      </trkpt>
      <trkpt lat="47.2377" lon="-1.71781">
        <ele>9</ele>
        <time>2013-09-01T08:49:27Z</time>
      </trkpt>
      <trkpt lat="47.23755" lon="-1.71801">
        <ele>8.4</ele>
        <time>2013-09-01T08:49:31Z</time>
      </trkpt>
      <trkpt lat="47.23741" lon="-1.71818">
        <ele>10.4</ele>
        <time>2013-09-01T08:49:35Z</time>
      </trkpt>
      <trkpt lat="47.23728" lon="-1.71835">
        <ele>10.7</ele>
        <time>2013-09-01T08:49:39Z</time>
      </trkpt>
      <trkpt lat="47.23718" lon="-1.71852">
        <ele>10</ele>
        <time>2013-09-01T08:49:43Z</time>
      </trkpt>
      <trkpt lat="47.2371" lon="-1.71871">
        <ele>11.4</ele>
        <time>2013-09-01T08:49:47Z</time>
      </trkpt>
      <trkpt lat="47.23702" lon="-1.7189">
        <ele>12.3</ele>
        <time>2013-09-01T08:49:51Z</time>
      </trkpt>
      <trkpt lat="47.23696" lon="-1.71906">
        <ele>12.3</ele>
        <time>2013-09-01T08:49:54Z</time>
      </trkpt>
      <trkpt lat="47.2369" lon="-1.71925">
        <ele>14.8</ele>
        <time>2013-09-01T08:49:58Z</time>
      </trkpt>
      <trkpt lat="47.23683" lon="-1.71941">
        <ele>15.6</ele>
        <time>2013-09-01T08:50:02Z</time>
      </trkpt>
      <trkpt lat="47.23672" lon="-1.71961">
        <ele>16.2</ele>
        <time>2013-09-01T08:50:06Z</time>
      </trkpt>
      <trkpt lat="47.23659" lon="-1.71984">
        <ele>17.6</ele>
        <time>2013-09-01T08:50:10Z</time>
      </trkpt>
      <trkpt lat="47.23632" lon="-1.72024">
        <ele>18.9</ele>
        <time>2013-09-01T08:50:14Z</time>
      </trkpt>
      <trkpt lat="47.23602" lon="-1.72051">
        <ele>18.8</ele>
        <time>2013-09-01T08:50:18Z</time>
      </trkpt>
      <trkpt lat="47.23593" lon="-1.72059">
        <ele>17.5</ele>
        <time>2013-09-01T08:50:22Z</time>
      </trkpt>
      <trkpt lat="47.2358" lon="-1.72053">
        <ele>17.6</ele>
        <time>2013-09-01T08:50:42Z</time>
      </trkpt>
      <trkpt lat="47.23568" lon="-1.72058">
        <ele>15.8</ele>
        <time>2013-09-01T08:50:46Z</time>
      </trkpt>
      <trkpt lat="47.23556" lon="-1.72065">
        <ele>14.5</ele>
        <time>2013-09-01T08:50:50Z</time>
      </trkpt>
      <trkpt lat="47.23542" lon="-1.72071">
        <ele>10.1</ele>
        <time>2013-09-01T08:50:54Z</time>
      </trkpt>
      <trkpt lat="47.23534" lon="-1.72061">
        <ele>10.5</ele>
        <time>2013-09-01T08:51:26Z</time>
      </trkpt>
      <trkpt lat="47.23526" lon="-1.72051">
        <ele>8.4</ele>
        <time>2013-09-01T08:51:54Z</time>
      </trkpt>
      <trkpt lat="47.23526" lon="-1.72051">
        <ele>14.2</ele>
        <time>2013-09-01T08:53:04Z</time>
      </trkpt>
      <trkpt lat="47.23526" lon="-1.72051">
        <ele>14.2</ele>
        <time>2013-09-01T09:28:03Z</time>
      </trkpt>
    </trkseg>
  </trk>
</gpx>